<?xml version="1.0" encoding="UTF-8" standalone="no" ?>
<gpx xmlns="http://www.topografix.com/GPX/1/1" xmlns:xsi="http://www.w3.org/2001/XMLSchema-instance" xsi:schemaLocation="http://www.topografix.com/GPX/1/1 http://www.topografix.com/GPX/1/1/gpx.xsd" version="1.1" creator="VisuGPX - https://www.visugpx.com">
  <metadata>
    <name>Sortie du 23 février 2025</name>
    <desc><![CDATA[Sortie vélo 1 avec CycloPlouisy]]></desc>
  </metadata>
  <trk>
    <name><![CDATA[
    ]]></name>
    <trkseg>
      <trkpt lat="48.57686" lon="-3.18911">
        <ele>148</ele>
        <time>2025-02-23T08:46:59.000Z</time>
      </trkpt>
      <trkpt lat="48.57684" lon="-3.189">
        <ele>147.8</ele>
        <time>2025-02-23T08:47:01.000Z</time>
      </trkpt>
      <trkpt lat="48.5768" lon="-3.18856">
        <ele>146.8</ele>
        <time>2025-02-23T08:47:10.000Z</time>
      </trkpt>
      <trkpt lat="48.57683" lon="-3.18827">
        <ele>146</ele>
        <time>2025-02-23T08:47:16.000Z</time>
      </trkpt>
      <trkpt lat="48.57689" lon="-3.18819">
        <ele>145.8</ele>
        <time>2025-02-23T08:47:18.000Z</time>
      </trkpt>
      <trkpt lat="48.57701" lon="-3.18805">
        <ele>145.8</ele>
        <time>2025-02-23T08:47:23.000Z</time>
      </trkpt>
      <trkpt lat="48.57701" lon="-3.18755">
        <ele>145.6</ele>
        <time>2025-02-23T08:47:34.000Z</time>
      </trkpt>
      <trkpt lat="48.57706" lon="-3.18691">
        <ele>145.2</ele>
        <time>2025-02-23T08:47:49.000Z</time>
      </trkpt>
      <trkpt lat="48.57695" lon="-3.18672">
        <ele>144.8</ele>
        <time>2025-02-23T08:47:55.000Z</time>
      </trkpt>
      <trkpt lat="48.57649" lon="-3.18665">
        <ele>143</ele>
        <time>2025-02-23T08:48:10.000Z</time>
      </trkpt>
      <trkpt lat="48.57649" lon="-3.18646">
        <ele>142.4</ele>
        <time>2025-02-23T08:48:19.000Z</time>
      </trkpt>
      <trkpt lat="48.57675" lon="-3.18615">
        <ele>142.8</ele>
        <time>2025-02-23T08:48:30.000Z</time>
      </trkpt>
      <trkpt lat="48.57694" lon="-3.1859">
        <ele>143.4</ele>
        <time>2025-02-23T08:48:39.000Z</time>
      </trkpt>
      <trkpt lat="48.57721" lon="-3.1857">
        <ele>142.2</ele>
        <time>2025-02-23T08:48:48.000Z</time>
      </trkpt>
      <trkpt lat="48.57752" lon="-3.18562">
        <ele>140</ele>
        <time>2025-02-23T08:48:57.000Z</time>
      </trkpt>
      <trkpt lat="48.57774" lon="-3.18552">
        <ele>139.6</ele>
        <time>2025-02-23T08:49:03.000Z</time>
      </trkpt>
      <trkpt lat="48.57785" lon="-3.18547">
        <ele>139.6</ele>
        <time>2025-02-23T08:49:05.000Z</time>
      </trkpt>
      <trkpt lat="48.57795" lon="-3.18541">
        <ele>139.6</ele>
        <time>2025-02-23T08:49:07.000Z</time>
      </trkpt>
      <trkpt lat="48.57809" lon="-3.18529">
        <ele>140.2</ele>
        <time>2025-02-23T08:49:10.000Z</time>
      </trkpt>
      <trkpt lat="48.57816" lon="-3.1852">
        <ele>141</ele>
        <time>2025-02-23T08:49:12.000Z</time>
      </trkpt>
      <trkpt lat="48.57831" lon="-3.18492">
        <ele>142.8</ele>
        <time>2025-02-23T08:49:17.000Z</time>
      </trkpt>
      <trkpt lat="48.57855" lon="-3.18404">
        <ele>146</ele>
        <time>2025-02-23T08:49:33.000Z</time>
      </trkpt>
      <trkpt lat="48.57886" lon="-3.1834">
        <ele>145.6</ele>
        <time>2025-02-23T08:49:46.000Z</time>
      </trkpt>
      <trkpt lat="48.57927" lon="-3.18258">
        <ele>144.2</ele>
        <time>2025-02-23T08:50:03.000Z</time>
      </trkpt>
      <trkpt lat="48.5797" lon="-3.18175">
        <ele>144.8</ele>
        <time>2025-02-23T08:50:19.000Z</time>
      </trkpt>
      <trkpt lat="48.57998" lon="-3.18115">
        <ele>146.2</ele>
        <time>2025-02-23T08:50:31.000Z</time>
      </trkpt>
      <trkpt lat="48.58014" lon="-3.18115">
        <ele>147.2</ele>
        <time>2025-02-23T08:50:36.000Z</time>
      </trkpt>
      <trkpt lat="48.58026" lon="-3.18128">
        <ele>148.2</ele>
        <time>2025-02-23T08:50:40.000Z</time>
      </trkpt>
      <trkpt lat="48.5806" lon="-3.1816">
        <ele>151.2</ele>
        <time>2025-02-23T08:50:56.000Z</time>
      </trkpt>
      <trkpt lat="48.58036" lon="-3.18142">
        <ele>150.4</ele>
        <time>2025-02-23T09:01:15.000Z</time>
      </trkpt>
      <trkpt lat="48.58003" lon="-3.18112">
        <ele>147.6</ele>
        <time>2025-02-23T09:01:31.000Z</time>
      </trkpt>
      <trkpt lat="48.58008" lon="-3.18076">
        <ele>147.4</ele>
        <time>2025-02-23T09:01:39.000Z</time>
      </trkpt>
      <trkpt lat="48.5804" lon="-3.17986">
        <ele>147.2</ele>
        <time>2025-02-23T09:01:55.000Z</time>
      </trkpt>
      <trkpt lat="48.58082" lon="-3.17894">
        <ele>147.2</ele>
        <time>2025-02-23T09:02:12.000Z</time>
      </trkpt>
      <trkpt lat="48.58149" lon="-3.17811">
        <ele>146.4</ele>
        <time>2025-02-23T09:02:28.000Z</time>
      </trkpt>
      <trkpt lat="48.58167" lon="-3.17793">
        <ele>146.2</ele>
        <time>2025-02-23T09:02:32.000Z</time>
      </trkpt>
      <trkpt lat="48.58177" lon="-3.17784">
        <ele>146</ele>
        <time>2025-02-23T09:02:34.000Z</time>
      </trkpt>
      <trkpt lat="48.58186" lon="-3.17775">
        <ele>146</ele>
        <time>2025-02-23T09:02:36.000Z</time>
      </trkpt>
      <trkpt lat="48.58244" lon="-3.17714">
        <ele>145.4</ele>
        <time>2025-02-23T09:02:49.000Z</time>
      </trkpt>
      <trkpt lat="48.58253" lon="-3.17701">
        <ele>145.2</ele>
        <time>2025-02-23T09:02:51.000Z</time>
      </trkpt>
      <trkpt lat="48.58261" lon="-3.17687">
        <ele>145.2</ele>
        <time>2025-02-23T09:02:53.000Z</time>
      </trkpt>
      <trkpt lat="48.5831" lon="-3.17626">
        <ele>144.8</ele>
        <time>2025-02-23T09:03:04.000Z</time>
      </trkpt>
      <trkpt lat="48.58335" lon="-3.17574">
        <ele>144.6</ele>
        <time>2025-02-23T09:03:13.000Z</time>
      </trkpt>
      <trkpt lat="48.58332" lon="-3.17545">
        <ele>144.2</ele>
        <time>2025-02-23T09:03:18.000Z</time>
      </trkpt>
      <trkpt lat="48.58301" lon="-3.17533">
        <ele>143.8</ele>
        <time>2025-02-23T09:03:24.000Z</time>
      </trkpt>
      <trkpt lat="48.58214" lon="-3.17514">
        <ele>143.2</ele>
        <time>2025-02-23T09:03:40.000Z</time>
      </trkpt>
      <trkpt lat="48.58153" lon="-3.17494">
        <ele>141.2</ele>
        <time>2025-02-23T09:03:51.000Z</time>
      </trkpt>
      <trkpt lat="48.58139" lon="-3.1749">
        <ele>140.4</ele>
        <time>2025-02-23T09:03:53.000Z</time>
      </trkpt>
      <trkpt lat="48.58125" lon="-3.17485">
        <ele>139.8</ele>
        <time>2025-02-23T09:03:55.000Z</time>
      </trkpt>
      <trkpt lat="48.58109" lon="-3.17481">
        <ele>139</ele>
        <time>2025-02-23T09:03:57.000Z</time>
      </trkpt>
      <trkpt lat="48.5807" lon="-3.17467">
        <ele>136.8</ele>
        <time>2025-02-23T09:04:02.000Z</time>
      </trkpt>
      <trkpt lat="48.58054" lon="-3.17461">
        <ele>135.8</ele>
        <time>2025-02-23T09:04:04.000Z</time>
      </trkpt>
      <trkpt lat="48.58038" lon="-3.17454">
        <ele>135</ele>
        <time>2025-02-23T09:04:06.000Z</time>
      </trkpt>
      <trkpt lat="48.58022" lon="-3.17445">
        <ele>134.4</ele>
        <time>2025-02-23T09:04:08.000Z</time>
      </trkpt>
      <trkpt lat="48.57945" lon="-3.17393">
        <ele>133.8</ele>
        <time>2025-02-23T09:04:20.000Z</time>
      </trkpt>
      <trkpt lat="48.57875" lon="-3.17322">
        <ele>134.6</ele>
        <time>2025-02-23T09:04:36.000Z</time>
      </trkpt>
      <trkpt lat="48.5779" lon="-3.17224">
        <ele>132.2</ele>
        <time>2025-02-23T09:04:52.000Z</time>
      </trkpt>
      <trkpt lat="48.57712" lon="-3.17148">
        <ele>130</ele>
        <time>2025-02-23T09:05:05.000Z</time>
      </trkpt>
      <trkpt lat="48.57592" lon="-3.17091">
        <ele>125.6</ele>
        <time>2025-02-23T09:05:22.000Z</time>
      </trkpt>
      <trkpt lat="48.57524" lon="-3.17041">
        <ele>122.8</ele>
        <time>2025-02-23T09:05:33.000Z</time>
      </trkpt>
      <trkpt lat="48.57464" lon="-3.1694">
        <ele>117.8</ele>
        <time>2025-02-23T09:05:45.000Z</time>
      </trkpt>
      <trkpt lat="48.57442" lon="-3.16856">
        <ele>113.4</ele>
        <time>2025-02-23T09:05:52.000Z</time>
      </trkpt>
      <trkpt lat="48.57437" lon="-3.16729">
        <ele>109</ele>
        <time>2025-02-23T09:06:02.000Z</time>
      </trkpt>
      <trkpt lat="48.5744" lon="-3.16702">
        <ele>108</ele>
        <time>2025-02-23T09:06:04.000Z</time>
      </trkpt>
      <trkpt lat="48.57445" lon="-3.16675">
        <ele>107</ele>
        <time>2025-02-23T09:06:06.000Z</time>
      </trkpt>
      <trkpt lat="48.57452" lon="-3.16648">
        <ele>105.8</ele>
        <time>2025-02-23T09:06:08.000Z</time>
      </trkpt>
      <trkpt lat="48.57466" lon="-3.1661">
        <ele>103.8</ele>
        <time>2025-02-23T09:06:11.000Z</time>
      </trkpt>
      <trkpt lat="48.57484" lon="-3.16535">
        <ele>100.4</ele>
        <time>2025-02-23T09:06:17.000Z</time>
      </trkpt>
      <trkpt lat="48.57472" lon="-3.1649">
        <ele>98.2</ele>
        <time>2025-02-23T09:06:21.000Z</time>
      </trkpt>
      <trkpt lat="48.5743" lon="-3.16453">
        <ele>95.6</ele>
        <time>2025-02-23T09:06:26.000Z</time>
      </trkpt>
      <trkpt lat="48.57411" lon="-3.16443">
        <ele>94.4</ele>
        <time>2025-02-23T09:06:28.000Z</time>
      </trkpt>
      <trkpt lat="48.57392" lon="-3.16433">
        <ele>93.2</ele>
        <time>2025-02-23T09:06:30.000Z</time>
      </trkpt>
      <trkpt lat="48.57364" lon="-3.16412">
        <ele>91.6</ele>
        <time>2025-02-23T09:06:33.000Z</time>
      </trkpt>
      <trkpt lat="48.57321" lon="-3.16373">
        <ele>88.6</ele>
        <time>2025-02-23T09:06:38.000Z</time>
      </trkpt>
      <trkpt lat="48.5725" lon="-3.16315">
        <ele>84</ele>
        <time>2025-02-23T09:06:47.000Z</time>
      </trkpt>
      <trkpt lat="48.57196" lon="-3.16251">
        <ele>79.8</ele>
        <time>2025-02-23T09:06:54.000Z</time>
      </trkpt>
      <trkpt lat="48.5717" lon="-3.16168">
        <ele>77.4</ele>
        <time>2025-02-23T09:07:00.000Z</time>
      </trkpt>
      <trkpt lat="48.57145" lon="-3.16065">
        <ele>75.4</ele>
        <time>2025-02-23T09:07:07.000Z</time>
      </trkpt>
      <trkpt lat="48.57106" lon="-3.16018">
        <ele>75</ele>
        <time>2025-02-23T09:07:14.000Z</time>
      </trkpt>
      <trkpt lat="48.57014" lon="-3.15964">
        <ele>74.2</ele>
        <time>2025-02-23T09:07:30.000Z</time>
      </trkpt>
      <trkpt lat="48.56935" lon="-3.1592">
        <ele>75</ele>
        <time>2025-02-23T09:07:46.000Z</time>
      </trkpt>
      <trkpt lat="48.56874" lon="-3.15916">
        <ele>75.2</ele>
        <time>2025-02-23T09:07:59.000Z</time>
      </trkpt>
      <trkpt lat="48.5686" lon="-3.15897">
        <ele>75</ele>
        <time>2025-02-23T09:08:03.000Z</time>
      </trkpt>
      <trkpt lat="48.56846" lon="-3.15864">
        <ele>75.2</ele>
        <time>2025-02-23T09:08:08.000Z</time>
      </trkpt>
      <trkpt lat="48.56786" lon="-3.15857">
        <ele>76</ele>
        <time>2025-02-23T09:08:19.000Z</time>
      </trkpt>
      <trkpt lat="48.56724" lon="-3.15829">
        <ele>77.4</ele>
        <time>2025-02-23T09:08:34.000Z</time>
      </trkpt>
      <trkpt lat="48.56662" lon="-3.15795">
        <ele>77.4</ele>
        <time>2025-02-23T09:08:50.000Z</time>
      </trkpt>
      <trkpt lat="48.56611" lon="-3.15733">
        <ele>78.4</ele>
        <time>2025-02-23T09:09:06.000Z</time>
      </trkpt>
      <trkpt lat="48.56573" lon="-3.15671">
        <ele>81.4</ele>
        <time>2025-02-23T09:09:22.000Z</time>
      </trkpt>
      <trkpt lat="48.56536" lon="-3.15603">
        <ele>83</ele>
        <time>2025-02-23T09:09:38.000Z</time>
      </trkpt>
      <trkpt lat="48.56494" lon="-3.15519">
        <ele>82.2</ele>
        <time>2025-02-23T09:09:54.000Z</time>
      </trkpt>
      <trkpt lat="48.56454" lon="-3.15461">
        <ele>80.8</ele>
        <time>2025-02-23T09:10:05.000Z</time>
      </trkpt>
      <trkpt lat="48.56407" lon="-3.15417">
        <ele>79</ele>
        <time>2025-02-23T09:10:18.000Z</time>
      </trkpt>
      <trkpt lat="48.56404" lon="-3.15368">
        <ele>79</ele>
        <time>2025-02-23T09:10:26.000Z</time>
      </trkpt>
      <trkpt lat="48.56386" lon="-3.15239">
        <ele>80.6</ele>
        <time>2025-02-23T09:10:42.000Z</time>
      </trkpt>
      <trkpt lat="48.56373" lon="-3.15117">
        <ele>81.8</ele>
        <time>2025-02-23T09:10:58.000Z</time>
      </trkpt>
      <trkpt lat="48.56363" lon="-3.15052">
        <ele>83.4</ele>
        <time>2025-02-23T09:11:12.000Z</time>
      </trkpt>
      <trkpt lat="48.56356" lon="-3.15038">
        <ele>83.8</ele>
        <time>2025-02-23T09:11:22.000Z</time>
      </trkpt>
      <trkpt lat="48.56328" lon="-3.14998">
        <ele>84.4</ele>
        <time>2025-02-23T09:11:54.000Z</time>
      </trkpt>
      <trkpt lat="48.56273" lon="-3.14949">
        <ele>86</ele>
        <time>2025-02-23T09:12:10.000Z</time>
      </trkpt>
      <trkpt lat="48.56216" lon="-3.14911">
        <ele>87.4</ele>
        <time>2025-02-23T09:12:25.000Z</time>
      </trkpt>
      <trkpt lat="48.56157" lon="-3.1489">
        <ele>88.6</ele>
        <time>2025-02-23T09:12:41.000Z</time>
      </trkpt>
      <trkpt lat="48.56111" lon="-3.14869">
        <ele>90.2</ele>
        <time>2025-02-23T09:12:55.000Z</time>
      </trkpt>
      <trkpt lat="48.56075" lon="-3.14845">
        <ele>91.6</ele>
        <time>2025-02-23T09:13:07.000Z</time>
      </trkpt>
      <trkpt lat="48.56057" lon="-3.14865">
        <ele>91.8</ele>
        <time>2025-02-23T09:13:14.000Z</time>
      </trkpt>
      <trkpt lat="48.5604" lon="-3.14871">
        <ele>91.6</ele>
        <time>2025-02-23T09:13:20.000Z</time>
      </trkpt>
      <trkpt lat="48.55996" lon="-3.14818">
        <ele>92.4</ele>
        <time>2025-02-23T09:13:34.000Z</time>
      </trkpt>
      <trkpt lat="48.55951" lon="-3.14762">
        <ele>92.4</ele>
        <time>2025-02-23T09:13:48.000Z</time>
      </trkpt>
      <trkpt lat="48.5592" lon="-3.14685">
        <ele>93.4</ele>
        <time>2025-02-23T09:14:03.000Z</time>
      </trkpt>
      <trkpt lat="48.55885" lon="-3.14592">
        <ele>94.8</ele>
        <time>2025-02-23T09:14:19.000Z</time>
      </trkpt>
      <trkpt lat="48.55864" lon="-3.14524">
        <ele>95.4</ele>
        <time>2025-02-23T09:14:33.000Z</time>
      </trkpt>
      <trkpt lat="48.55861" lon="-3.14498">
        <ele>95.6</ele>
        <time>2025-02-23T09:14:44.000Z</time>
      </trkpt>
      <trkpt lat="48.55846" lon="-3.1443">
        <ele>96.4</ele>
        <time>2025-02-23T09:15:06.000Z</time>
      </trkpt>
      <trkpt lat="48.55822" lon="-3.1434">
        <ele>97</ele>
        <time>2025-02-23T09:15:22.000Z</time>
      </trkpt>
      <trkpt lat="48.558" lon="-3.14256">
        <ele>98.2</ele>
        <time>2025-02-23T09:15:38.000Z</time>
      </trkpt>
      <trkpt lat="48.55778" lon="-3.14175">
        <ele>99.8</ele>
        <time>2025-02-23T09:15:54.000Z</time>
      </trkpt>
      <trkpt lat="48.55756" lon="-3.14097">
        <ele>101</ele>
        <time>2025-02-23T09:16:10.000Z</time>
      </trkpt>
      <trkpt lat="48.55732" lon="-3.14011">
        <ele>102</ele>
        <time>2025-02-23T09:16:27.000Z</time>
      </trkpt>
      <trkpt lat="48.55725" lon="-3.13942">
        <ele>102.4</ele>
        <time>2025-02-23T09:16:38.000Z</time>
      </trkpt>
      <trkpt lat="48.55729" lon="-3.1384">
        <ele>104</ele>
        <time>2025-02-23T09:16:54.000Z</time>
      </trkpt>
      <trkpt lat="48.55733" lon="-3.13746">
        <ele>105.4</ele>
        <time>2025-02-23T09:17:10.000Z</time>
      </trkpt>
      <trkpt lat="48.55739" lon="-3.13658">
        <ele>106.8</ele>
        <time>2025-02-23T09:17:25.000Z</time>
      </trkpt>
      <trkpt lat="48.55749" lon="-3.13631">
        <ele>107</ele>
        <time>2025-02-23T09:17:31.000Z</time>
      </trkpt>
      <trkpt lat="48.55767" lon="-3.13513">
        <ele>105.8</ele>
        <time>2025-02-23T09:17:47.000Z</time>
      </trkpt>
      <trkpt lat="48.55784" lon="-3.13398">
        <ele>105.8</ele>
        <time>2025-02-23T09:18:03.000Z</time>
      </trkpt>
      <trkpt lat="48.55798" lon="-3.13298">
        <ele>107.2</ele>
        <time>2025-02-23T09:18:19.000Z</time>
      </trkpt>
      <trkpt lat="48.55826" lon="-3.13213">
        <ele>108.4</ele>
        <time>2025-02-23T09:18:35.000Z</time>
      </trkpt>
      <trkpt lat="48.55844" lon="-3.13112">
        <ele>109.4</ele>
        <time>2025-02-23T09:18:52.000Z</time>
      </trkpt>
      <trkpt lat="48.55866" lon="-3.13013">
        <ele>111.2</ele>
        <time>2025-02-23T09:19:08.000Z</time>
      </trkpt>
      <trkpt lat="48.55872" lon="-3.12926">
        <ele>113.4</ele>
        <time>2025-02-23T09:19:24.000Z</time>
      </trkpt>
      <trkpt lat="48.55879" lon="-3.12844">
        <ele>115.6</ele>
        <time>2025-02-23T09:19:40.000Z</time>
      </trkpt>
      <trkpt lat="48.55893" lon="-3.12753">
        <ele>115.8</ele>
        <time>2025-02-23T09:19:56.000Z</time>
      </trkpt>
      <trkpt lat="48.55906" lon="-3.12698">
        <ele>115</ele>
        <time>2025-02-23T09:20:05.000Z</time>
      </trkpt>
      <trkpt lat="48.55927" lon="-3.12694">
        <ele>114.4</ele>
        <time>2025-02-23T09:20:10.000Z</time>
      </trkpt>
      <trkpt lat="48.55944" lon="-3.12689">
        <ele>114.2</ele>
        <time>2025-02-23T09:20:15.000Z</time>
      </trkpt>
      <trkpt lat="48.55937" lon="-3.12625">
        <ele>115.4</ele>
        <time>2025-02-23T09:20:25.000Z</time>
      </trkpt>
      <trkpt lat="48.5592" lon="-3.12567">
        <ele>117.2</ele>
        <time>2025-02-23T09:20:37.000Z</time>
      </trkpt>
      <trkpt lat="48.55905" lon="-3.12518">
        <ele>118</ele>
        <time>2025-02-23T09:20:47.000Z</time>
      </trkpt>
      <trkpt lat="48.55893" lon="-3.12467">
        <ele>118.6</ele>
        <time>2025-02-23T09:20:57.000Z</time>
      </trkpt>
      <trkpt lat="48.55849" lon="-3.12409">
        <ele>119.4</ele>
        <time>2025-02-23T09:21:14.000Z</time>
      </trkpt>
      <trkpt lat="48.55793" lon="-3.12372">
        <ele>121.2</ele>
        <time>2025-02-23T09:21:30.000Z</time>
      </trkpt>
      <trkpt lat="48.55733" lon="-3.12362">
        <ele>122.8</ele>
        <time>2025-02-23T09:21:46.000Z</time>
      </trkpt>
      <trkpt lat="48.55671" lon="-3.12357">
        <ele>123.4</ele>
        <time>2025-02-23T09:22:02.000Z</time>
      </trkpt>
      <trkpt lat="48.55608" lon="-3.1236">
        <ele>124.2</ele>
        <time>2025-02-23T09:22:18.000Z</time>
      </trkpt>
      <trkpt lat="48.55554" lon="-3.12372">
        <ele>125</ele>
        <time>2025-02-23T09:22:33.000Z</time>
      </trkpt>
      <trkpt lat="48.55531" lon="-3.1238">
        <ele>125.2</ele>
        <time>2025-02-23T09:22:40.000Z</time>
      </trkpt>
      <trkpt lat="48.55527" lon="-3.12352">
        <ele>125.2</ele>
        <time>2025-02-23T09:22:46.000Z</time>
      </trkpt>
      <trkpt lat="48.5552" lon="-3.12274">
        <ele>126.4</ele>
        <time>2025-02-23T09:22:57.000Z</time>
      </trkpt>
      <trkpt lat="48.55481" lon="-3.12159">
        <ele>127.4</ele>
        <time>2025-02-23T09:23:13.000Z</time>
      </trkpt>
      <trkpt lat="48.55444" lon="-3.12064">
        <ele>128.4</ele>
        <time>2025-02-23T09:23:30.000Z</time>
      </trkpt>
      <trkpt lat="48.55422" lon="-3.11969">
        <ele>129</ele>
        <time>2025-02-23T09:23:46.000Z</time>
      </trkpt>
      <trkpt lat="48.55408" lon="-3.11866">
        <ele>128.6</ele>
        <time>2025-02-23T09:24:02.000Z</time>
      </trkpt>
      <trkpt lat="48.55396" lon="-3.11776">
        <ele>128.4</ele>
        <time>2025-02-23T09:24:18.000Z</time>
      </trkpt>
      <trkpt lat="48.55384" lon="-3.11687">
        <ele>127.6</ele>
        <time>2025-02-23T09:24:34.000Z</time>
      </trkpt>
      <trkpt lat="48.55371" lon="-3.11592">
        <ele>127.4</ele>
        <time>2025-02-23T09:24:50.000Z</time>
      </trkpt>
      <trkpt lat="48.55358" lon="-3.11489">
        <ele>127</ele>
        <time>2025-02-23T09:25:06.000Z</time>
      </trkpt>
      <trkpt lat="48.55343" lon="-3.11381">
        <ele>128.2</ele>
        <time>2025-02-23T09:25:22.000Z</time>
      </trkpt>
      <trkpt lat="48.55328" lon="-3.11273">
        <ele>129.4</ele>
        <time>2025-02-23T09:25:38.000Z</time>
      </trkpt>
      <trkpt lat="48.55315" lon="-3.11166">
        <ele>129.8</ele>
        <time>2025-02-23T09:25:55.000Z</time>
      </trkpt>
      <trkpt lat="48.55301" lon="-3.11061">
        <ele>130.2</ele>
        <time>2025-02-23T09:26:11.000Z</time>
      </trkpt>
      <trkpt lat="48.55285" lon="-3.10943">
        <ele>130.6</ele>
        <time>2025-02-23T09:26:27.000Z</time>
      </trkpt>
      <trkpt lat="48.5527" lon="-3.10844">
        <ele>131.8</ele>
        <time>2025-02-23T09:26:43.000Z</time>
      </trkpt>
      <trkpt lat="48.55253" lon="-3.10754">
        <ele>133.6</ele>
        <time>2025-02-23T09:26:59.000Z</time>
      </trkpt>
      <trkpt lat="48.55234" lon="-3.10663">
        <ele>134.8</ele>
        <time>2025-02-23T09:27:15.000Z</time>
      </trkpt>
      <trkpt lat="48.55212" lon="-3.10569">
        <ele>135.4</ele>
        <time>2025-02-23T09:27:31.000Z</time>
      </trkpt>
      <trkpt lat="48.55185" lon="-3.10452">
        <ele>134</ele>
        <time>2025-02-23T09:27:47.000Z</time>
      </trkpt>
      <trkpt lat="48.55156" lon="-3.10326">
        <ele>131.8</ele>
        <time>2025-02-23T09:28:03.000Z</time>
      </trkpt>
      <trkpt lat="48.55127" lon="-3.10198">
        <ele>129.2</ele>
        <time>2025-02-23T09:28:20.000Z</time>
      </trkpt>
      <trkpt lat="48.55088" lon="-3.10046">
        <ele>127.2</ele>
        <time>2025-02-23T09:28:36.000Z</time>
      </trkpt>
      <trkpt lat="48.55049" lon="-3.09924">
        <ele>127</ele>
        <time>2025-02-23T09:28:52.000Z</time>
      </trkpt>
      <trkpt lat="48.55011" lon="-3.09823">
        <ele>128</ele>
        <time>2025-02-23T09:29:08.000Z</time>
      </trkpt>
      <trkpt lat="48.54973" lon="-3.09732">
        <ele>129.2</ele>
        <time>2025-02-23T09:29:24.000Z</time>
      </trkpt>
      <trkpt lat="48.54934" lon="-3.09646">
        <ele>130.2</ele>
        <time>2025-02-23T09:29:40.000Z</time>
      </trkpt>
      <trkpt lat="48.54901" lon="-3.09578">
        <ele>132</ele>
        <time>2025-02-23T09:29:56.000Z</time>
      </trkpt>
      <trkpt lat="48.54869" lon="-3.09508">
        <ele>132.8</ele>
        <time>2025-02-23T09:30:12.000Z</time>
      </trkpt>
      <trkpt lat="48.54837" lon="-3.09439">
        <ele>133.6</ele>
        <time>2025-02-23T09:30:28.000Z</time>
      </trkpt>
      <trkpt lat="48.54805" lon="-3.0937">
        <ele>134.6</ele>
        <time>2025-02-23T09:30:45.000Z</time>
      </trkpt>
      <trkpt lat="48.54772" lon="-3.09302">
        <ele>135.4</ele>
        <time>2025-02-23T09:31:01.000Z</time>
      </trkpt>
      <trkpt lat="48.54737" lon="-3.09221">
        <ele>136.4</ele>
        <time>2025-02-23T09:31:17.000Z</time>
      </trkpt>
      <trkpt lat="48.54705" lon="-3.09143">
        <ele>137.6</ele>
        <time>2025-02-23T09:31:33.000Z</time>
      </trkpt>
      <trkpt lat="48.54675" lon="-3.09066">
        <ele>138.4</ele>
        <time>2025-02-23T09:31:49.000Z</time>
      </trkpt>
      <trkpt lat="48.54644" lon="-3.08985">
        <ele>139.2</ele>
        <time>2025-02-23T09:32:05.000Z</time>
      </trkpt>
      <trkpt lat="48.54615" lon="-3.08899">
        <ele>139.8</ele>
        <time>2025-02-23T09:32:21.000Z</time>
      </trkpt>
      <trkpt lat="48.54587" lon="-3.08813">
        <ele>141</ele>
        <time>2025-02-23T09:32:37.000Z</time>
      </trkpt>
      <trkpt lat="48.54562" lon="-3.08728">
        <ele>142</ele>
        <time>2025-02-23T09:32:53.000Z</time>
      </trkpt>
      <trkpt lat="48.54538" lon="-3.08645">
        <ele>144.2</ele>
        <time>2025-02-23T09:33:10.000Z</time>
      </trkpt>
      <trkpt lat="48.54518" lon="-3.08566">
        <ele>146.4</ele>
        <time>2025-02-23T09:33:26.000Z</time>
      </trkpt>
      <trkpt lat="48.54501" lon="-3.08499">
        <ele>149.4</ele>
        <time>2025-02-23T09:33:42.000Z</time>
      </trkpt>
      <trkpt lat="48.54487" lon="-3.0845">
        <ele>150.6</ele>
        <time>2025-02-23T09:33:57.000Z</time>
      </trkpt>
      <trkpt lat="48.54505" lon="-3.08422">
        <ele>150.2</ele>
        <time>2025-02-23T09:34:05.000Z</time>
      </trkpt>
      <trkpt lat="48.54575" lon="-3.08348">
        <ele>147.4</ele>
        <time>2025-02-23T09:34:21.000Z</time>
      </trkpt>
      <trkpt lat="48.54616" lon="-3.08269">
        <ele>144.6</ele>
        <time>2025-02-23T09:34:30.000Z</time>
      </trkpt>
      <trkpt lat="48.54634" lon="-3.08168">
        <ele>142.4</ele>
        <time>2025-02-23T09:34:38.000Z</time>
      </trkpt>
      <trkpt lat="48.54626" lon="-3.0807">
        <ele>140.4</ele>
        <time>2025-02-23T09:34:46.000Z</time>
      </trkpt>
      <trkpt lat="48.54596" lon="-3.07982">
        <ele>139.2</ele>
        <time>2025-02-23T09:34:55.000Z</time>
      </trkpt>
      <trkpt lat="48.54545" lon="-3.07917">
        <ele>138.4</ele>
        <time>2025-02-23T09:35:06.000Z</time>
      </trkpt>
      <trkpt lat="48.54475" lon="-3.07876">
        <ele>138.2</ele>
        <time>2025-02-23T09:35:21.000Z</time>
      </trkpt>
      <trkpt lat="48.5441" lon="-3.07862">
        <ele>139.2</ele>
        <time>2025-02-23T09:35:37.000Z</time>
      </trkpt>
      <trkpt lat="48.54344" lon="-3.07845">
        <ele>140.4</ele>
        <time>2025-02-23T09:35:53.000Z</time>
      </trkpt>
      <trkpt lat="48.54291" lon="-3.07813">
        <ele>141.8</ele>
        <time>2025-02-23T09:36:09.000Z</time>
      </trkpt>
      <trkpt lat="48.54251" lon="-3.07764">
        <ele>143.4</ele>
        <time>2025-02-23T09:36:25.000Z</time>
      </trkpt>
      <trkpt lat="48.54224" lon="-3.07706">
        <ele>144.8</ele>
        <time>2025-02-23T09:36:41.000Z</time>
      </trkpt>
      <trkpt lat="48.54206" lon="-3.07642">
        <ele>146.2</ele>
        <time>2025-02-23T09:36:57.000Z</time>
      </trkpt>
      <trkpt lat="48.5419" lon="-3.07576">
        <ele>147.4</ele>
        <time>2025-02-23T09:37:13.000Z</time>
      </trkpt>
      <trkpt lat="48.54173" lon="-3.0751">
        <ele>149</ele>
        <time>2025-02-23T09:37:29.000Z</time>
      </trkpt>
      <trkpt lat="48.54157" lon="-3.07445">
        <ele>150.6</ele>
        <time>2025-02-23T09:37:46.000Z</time>
      </trkpt>
      <trkpt lat="48.54142" lon="-3.07378">
        <ele>152</ele>
        <time>2025-02-23T09:38:02.000Z</time>
      </trkpt>
      <trkpt lat="48.54124" lon="-3.07302">
        <ele>153</ele>
        <time>2025-02-23T09:38:18.000Z</time>
      </trkpt>
      <trkpt lat="48.54106" lon="-3.07225">
        <ele>154</ele>
        <time>2025-02-23T09:38:34.000Z</time>
      </trkpt>
      <trkpt lat="48.5409" lon="-3.07151">
        <ele>154.8</ele>
        <time>2025-02-23T09:38:50.000Z</time>
      </trkpt>
      <trkpt lat="48.54071" lon="-3.07072">
        <ele>155.4</ele>
        <time>2025-02-23T09:39:06.000Z</time>
      </trkpt>
      <trkpt lat="48.54051" lon="-3.06991">
        <ele>156.2</ele>
        <time>2025-02-23T09:39:22.000Z</time>
      </trkpt>
      <trkpt lat="48.54031" lon="-3.06909">
        <ele>157</ele>
        <time>2025-02-23T09:39:38.000Z</time>
      </trkpt>
      <trkpt lat="48.54009" lon="-3.06828">
        <ele>157.8</ele>
        <time>2025-02-23T09:39:54.000Z</time>
      </trkpt>
      <trkpt lat="48.53991" lon="-3.06751">
        <ele>159.4</ele>
        <time>2025-02-23T09:40:11.000Z</time>
      </trkpt>
      <trkpt lat="48.53972" lon="-3.0668">
        <ele>162.6</ele>
        <time>2025-02-23T09:40:27.000Z</time>
      </trkpt>
      <trkpt lat="48.53965" lon="-3.06647">
        <ele>164.2</ele>
        <time>2025-02-23T09:40:34.000Z</time>
      </trkpt>
      <trkpt lat="48.53952" lon="-3.06598">
        <ele>166.2</ele>
        <time>2025-02-23T09:40:48.000Z</time>
      </trkpt>
      <trkpt lat="48.53937" lon="-3.0654">
        <ele>168.4</ele>
        <time>2025-02-23T09:41:04.000Z</time>
      </trkpt>
      <trkpt lat="48.53921" lon="-3.06474">
        <ele>169.2</ele>
        <time>2025-02-23T09:41:20.000Z</time>
      </trkpt>
      <trkpt lat="48.53901" lon="-3.06395">
        <ele>170.2</ele>
        <time>2025-02-23T09:41:36.000Z</time>
      </trkpt>
      <trkpt lat="48.53877" lon="-3.06302">
        <ele>169.8</ele>
        <time>2025-02-23T09:41:52.000Z</time>
      </trkpt>
      <trkpt lat="48.53855" lon="-3.06199">
        <ele>169</ele>
        <time>2025-02-23T09:42:08.000Z</time>
      </trkpt>
      <trkpt lat="48.53833" lon="-3.06092">
        <ele>169.4</ele>
        <time>2025-02-23T09:42:23.000Z</time>
      </trkpt>
      <trkpt lat="48.53797" lon="-3.05957">
        <ele>170.4</ele>
        <time>2025-02-23T09:42:40.000Z</time>
      </trkpt>
      <trkpt lat="48.53765" lon="-3.05827">
        <ele>171</ele>
        <time>2025-02-23T09:42:56.000Z</time>
      </trkpt>
      <trkpt lat="48.5374" lon="-3.05732">
        <ele>171</ele>
        <time>2025-02-23T09:43:12.000Z</time>
      </trkpt>
      <trkpt lat="48.53721" lon="-3.05652">
        <ele>170.8</ele>
        <time>2025-02-23T09:43:28.000Z</time>
      </trkpt>
      <trkpt lat="48.537" lon="-3.05567">
        <ele>170.2</ele>
        <time>2025-02-23T09:43:44.000Z</time>
      </trkpt>
      <trkpt lat="48.53681" lon="-3.05475">
        <ele>170</ele>
        <time>2025-02-23T09:44:00.000Z</time>
      </trkpt>
      <trkpt lat="48.53661" lon="-3.05368">
        <ele>169.2</ele>
        <time>2025-02-23T09:44:16.000Z</time>
      </trkpt>
      <trkpt lat="48.53643" lon="-3.05244">
        <ele>167.8</ele>
        <time>2025-02-23T09:44:32.000Z</time>
      </trkpt>
      <trkpt lat="48.53629" lon="-3.051">
        <ele>165.8</ele>
        <time>2025-02-23T09:44:48.000Z</time>
      </trkpt>
      <trkpt lat="48.53619" lon="-3.04955">
        <ele>163.4</ele>
        <time>2025-02-23T09:45:05.000Z</time>
      </trkpt>
      <trkpt lat="48.5361" lon="-3.04802">
        <ele>162</ele>
        <time>2025-02-23T09:45:21.000Z</time>
      </trkpt>
      <trkpt lat="48.53614" lon="-3.04653">
        <ele>161.8</ele>
        <time>2025-02-23T09:45:37.000Z</time>
      </trkpt>
      <trkpt lat="48.53629" lon="-3.04523">
        <ele>163.4</ele>
        <time>2025-02-23T09:45:53.000Z</time>
      </trkpt>
      <trkpt lat="48.53652" lon="-3.04396">
        <ele>164.2</ele>
        <time>2025-02-23T09:46:09.000Z</time>
      </trkpt>
      <trkpt lat="48.53678" lon="-3.04257">
        <ele>162.4</ele>
        <time>2025-02-23T09:46:25.000Z</time>
      </trkpt>
      <trkpt lat="48.5371" lon="-3.04091">
        <ele>159.2</ele>
        <time>2025-02-23T09:46:41.000Z</time>
      </trkpt>
      <trkpt lat="48.53735" lon="-3.03952">
        <ele>159.2</ele>
        <time>2025-02-23T09:46:57.000Z</time>
      </trkpt>
      <trkpt lat="48.53739" lon="-3.03842">
        <ele>159.6</ele>
        <time>2025-02-23T09:47:11.000Z</time>
      </trkpt>
      <trkpt lat="48.53721" lon="-3.03723">
        <ele>161.2</ele>
        <time>2025-02-23T09:47:27.000Z</time>
      </trkpt>
      <trkpt lat="48.53675" lon="-3.03599">
        <ele>160</ele>
        <time>2025-02-23T09:47:43.000Z</time>
      </trkpt>
      <trkpt lat="48.53645" lon="-3.03482">
        <ele>158.4</ele>
        <time>2025-02-23T09:47:57.000Z</time>
      </trkpt>
      <trkpt lat="48.53638" lon="-3.03356">
        <ele>156</ele>
        <time>2025-02-23T09:48:10.000Z</time>
      </trkpt>
      <trkpt lat="48.5365" lon="-3.03158">
        <ele>151</ele>
        <time>2025-02-23T09:48:26.000Z</time>
      </trkpt>
      <trkpt lat="48.53663" lon="-3.02953">
        <ele>146.8</ele>
        <time>2025-02-23T09:48:42.000Z</time>
      </trkpt>
      <trkpt lat="48.53675" lon="-3.02762">
        <ele>144.2</ele>
        <time>2025-02-23T09:48:58.000Z</time>
      </trkpt>
      <trkpt lat="48.5368" lon="-3.02573">
        <ele>141.8</ele>
        <time>2025-02-23T09:49:14.000Z</time>
      </trkpt>
      <trkpt lat="48.53671" lon="-3.02412">
        <ele>141.4</ele>
        <time>2025-02-23T09:49:30.000Z</time>
      </trkpt>
      <trkpt lat="48.53662" lon="-3.02276">
        <ele>141.8</ele>
        <time>2025-02-23T09:49:47.000Z</time>
      </trkpt>
      <trkpt lat="48.53654" lon="-3.02143">
        <ele>142</ele>
        <time>2025-02-23T09:50:03.000Z</time>
      </trkpt>
      <trkpt lat="48.5364" lon="-3.02015">
        <ele>142.6</ele>
        <time>2025-02-23T09:50:19.000Z</time>
      </trkpt>
      <trkpt lat="48.5362" lon="-3.01878">
        <ele>142.2</ele>
        <time>2025-02-23T09:50:35.000Z</time>
      </trkpt>
      <trkpt lat="48.53618" lon="-3.01735">
        <ele>141.8</ele>
        <time>2025-02-23T09:50:51.000Z</time>
      </trkpt>
      <trkpt lat="48.53617" lon="-3.01609">
        <ele>141.6</ele>
        <time>2025-02-23T09:51:07.000Z</time>
      </trkpt>
      <trkpt lat="48.53616" lon="-3.01493">
        <ele>143.4</ele>
        <time>2025-02-23T09:51:23.000Z</time>
      </trkpt>
      <trkpt lat="48.53615" lon="-3.01373">
        <ele>143.6</ele>
        <time>2025-02-23T09:51:39.000Z</time>
      </trkpt>
      <trkpt lat="48.53614" lon="-3.01259">
        <ele>144.4</ele>
        <time>2025-02-23T09:51:55.000Z</time>
      </trkpt>
      <trkpt lat="48.53613" lon="-3.0116">
        <ele>146</ele>
        <time>2025-02-23T09:52:12.000Z</time>
      </trkpt>
      <trkpt lat="48.53613" lon="-3.01054">
        <ele>146.6</ele>
        <time>2025-02-23T09:52:28.000Z</time>
      </trkpt>
      <trkpt lat="48.53614" lon="-3.00929">
        <ele>146.8</ele>
        <time>2025-02-23T09:52:44.000Z</time>
      </trkpt>
      <trkpt lat="48.53616" lon="-3.00806">
        <ele>146.4</ele>
        <time>2025-02-23T09:53:00.000Z</time>
      </trkpt>
      <trkpt lat="48.53617" lon="-3.00683">
        <ele>146.4</ele>
        <time>2025-02-23T09:53:16.000Z</time>
      </trkpt>
      <trkpt lat="48.53618" lon="-3.00567">
        <ele>147</ele>
        <time>2025-02-23T09:53:32.000Z</time>
      </trkpt>
      <trkpt lat="48.5362" lon="-3.00466">
        <ele>147.2</ele>
        <time>2025-02-23T09:53:48.000Z</time>
      </trkpt>
      <trkpt lat="48.53621" lon="-3.00362">
        <ele>147.2</ele>
        <time>2025-02-23T09:54:04.000Z</time>
      </trkpt>
      <trkpt lat="48.53616" lon="-3.00292">
        <ele>147.4</ele>
        <time>2025-02-23T09:54:16.000Z</time>
      </trkpt>
      <trkpt lat="48.53593" lon="-3.00222">
        <ele>146.8</ele>
        <time>2025-02-23T09:54:30.000Z</time>
      </trkpt>
      <trkpt lat="48.53598" lon="-3.00194">
        <ele>146.8</ele>
        <time>2025-02-23T09:54:34.000Z</time>
      </trkpt>
      <trkpt lat="48.53626" lon="-3.0015">
        <ele>147.4</ele>
        <time>2025-02-23T09:54:43.000Z</time>
      </trkpt>
      <trkpt lat="48.53627" lon="-3.0005">
        <ele>148.4</ele>
        <time>2025-02-23T09:54:59.000Z</time>
      </trkpt>
      <trkpt lat="48.53627" lon="-2.99973">
        <ele>150</ele>
        <time>2025-02-23T09:55:15.000Z</time>
      </trkpt>
      <trkpt lat="48.53641" lon="-2.99886">
        <ele>149.6</ele>
        <time>2025-02-23T09:55:30.000Z</time>
      </trkpt>
      <trkpt lat="48.53676" lon="-2.99748">
        <ele>146.2</ele>
        <time>2025-02-23T09:55:46.000Z</time>
      </trkpt>
      <trkpt lat="48.53704" lon="-2.99637">
        <ele>143.8</ele>
        <time>2025-02-23T09:55:58.000Z</time>
      </trkpt>
      <trkpt lat="48.53733" lon="-2.9953">
        <ele>143.2</ele>
        <time>2025-02-23T09:56:10.000Z</time>
      </trkpt>
      <trkpt lat="48.53765" lon="-2.99394">
        <ele>142.6</ele>
        <time>2025-02-23T09:56:26.000Z</time>
      </trkpt>
      <trkpt lat="48.53796" lon="-2.9927">
        <ele>140.6</ele>
        <time>2025-02-23T09:56:42.000Z</time>
      </trkpt>
      <trkpt lat="48.5383" lon="-2.99133">
        <ele>137.8</ele>
        <time>2025-02-23T09:56:59.000Z</time>
      </trkpt>
      <trkpt lat="48.53866" lon="-2.98989">
        <ele>134.8</ele>
        <time>2025-02-23T09:57:15.000Z</time>
      </trkpt>
      <trkpt lat="48.53881" lon="-2.98895">
        <ele>133</ele>
        <time>2025-02-23T09:57:28.000Z</time>
      </trkpt>
      <trkpt lat="48.53903" lon="-2.98849">
        <ele>132.2</ele>
        <time>2025-02-23T09:57:34.000Z</time>
      </trkpt>
      <trkpt lat="48.53927" lon="-2.98743">
        <ele>130.6</ele>
        <time>2025-02-23T09:57:45.000Z</time>
      </trkpt>
      <trkpt lat="48.53962" lon="-2.98594">
        <ele>128.8</ele>
        <time>2025-02-23T09:58:01.000Z</time>
      </trkpt>
      <trkpt lat="48.53995" lon="-2.98459">
        <ele>127.2</ele>
        <time>2025-02-23T09:58:17.000Z</time>
      </trkpt>
      <trkpt lat="48.54031" lon="-2.98314">
        <ele>125</ele>
        <time>2025-02-23T09:58:33.000Z</time>
      </trkpt>
      <trkpt lat="48.5406" lon="-2.98206">
        <ele>123.8</ele>
        <time>2025-02-23T09:58:49.000Z</time>
      </trkpt>
      <trkpt lat="48.54084" lon="-2.98098">
        <ele>122.8</ele>
        <time>2025-02-23T09:59:05.000Z</time>
      </trkpt>
      <trkpt lat="48.5411" lon="-2.97998">
        <ele>122.6</ele>
        <time>2025-02-23T09:59:22.000Z</time>
      </trkpt>
      <trkpt lat="48.54126" lon="-2.97912">
        <ele>121.8</ele>
        <time>2025-02-23T09:59:38.000Z</time>
      </trkpt>
      <trkpt lat="48.54138" lon="-2.97817">
        <ele>119.4</ele>
        <time>2025-02-23T09:59:54.000Z</time>
      </trkpt>
      <trkpt lat="48.5415" lon="-2.97715">
        <ele>116.4</ele>
        <time>2025-02-23T10:00:10.000Z</time>
      </trkpt>
      <trkpt lat="48.54158" lon="-2.97615">
        <ele>111.6</ele>
        <time>2025-02-23T10:00:26.000Z</time>
      </trkpt>
      <trkpt lat="48.54165" lon="-2.97475">
        <ele>106</ele>
        <time>2025-02-23T10:00:42.000Z</time>
      </trkpt>
      <trkpt lat="48.5417" lon="-2.97352">
        <ele>103.4</ele>
        <time>2025-02-23T10:00:57.000Z</time>
      </trkpt>
      <trkpt lat="48.54196" lon="-2.97265">
        <ele>102.6</ele>
        <time>2025-02-23T10:01:11.000Z</time>
      </trkpt>
      <trkpt lat="48.54224" lon="-2.97175">
        <ele>102.6</ele>
        <time>2025-02-23T10:01:27.000Z</time>
      </trkpt>
      <trkpt lat="48.54253" lon="-2.97085">
        <ele>102</ele>
        <time>2025-02-23T10:01:44.000Z</time>
      </trkpt>
      <trkpt lat="48.5428" lon="-2.96999">
        <ele>102</ele>
        <time>2025-02-23T10:02:00.000Z</time>
      </trkpt>
      <trkpt lat="48.54309" lon="-2.96905">
        <ele>102.6</ele>
        <time>2025-02-23T10:02:16.000Z</time>
      </trkpt>
      <trkpt lat="48.54333" lon="-2.96832">
        <ele>103.6</ele>
        <time>2025-02-23T10:02:32.000Z</time>
      </trkpt>
      <trkpt lat="48.54353" lon="-2.96767">
        <ele>105.2</ele>
        <time>2025-02-23T10:02:48.000Z</time>
      </trkpt>
      <trkpt lat="48.54372" lon="-2.96702">
        <ele>107.6</ele>
        <time>2025-02-23T10:03:04.000Z</time>
      </trkpt>
      <trkpt lat="48.54404" lon="-2.96637">
        <ele>110.6</ele>
        <time>2025-02-23T10:03:20.000Z</time>
      </trkpt>
      <trkpt lat="48.54433" lon="-2.96578">
        <ele>113.4</ele>
        <time>2025-02-23T10:03:36.000Z</time>
      </trkpt>
      <trkpt lat="48.54459" lon="-2.96526">
        <ele>116</ele>
        <time>2025-02-23T10:03:52.000Z</time>
      </trkpt>
      <trkpt lat="48.54478" lon="-2.96484">
        <ele>118</ele>
        <time>2025-02-23T10:04:07.000Z</time>
      </trkpt>
      <trkpt lat="48.5449" lon="-2.96421">
        <ele>119.6</ele>
        <time>2025-02-23T10:04:23.000Z</time>
      </trkpt>
      <trkpt lat="48.54489" lon="-2.96348">
        <ele>121.8</ele>
        <time>2025-02-23T10:04:39.000Z</time>
      </trkpt>
      <trkpt lat="48.54472" lon="-2.96278">
        <ele>123.6</ele>
        <time>2025-02-23T10:04:55.000Z</time>
      </trkpt>
      <trkpt lat="48.54443" lon="-2.96217">
        <ele>125.8</ele>
        <time>2025-02-23T10:05:11.000Z</time>
      </trkpt>
      <trkpt lat="48.54402" lon="-2.96177">
        <ele>127.8</ele>
        <time>2025-02-23T10:05:27.000Z</time>
      </trkpt>
      <trkpt lat="48.54357" lon="-2.96147">
        <ele>129.6</ele>
        <time>2025-02-23T10:05:43.000Z</time>
      </trkpt>
      <trkpt lat="48.54315" lon="-2.9612">
        <ele>131</ele>
        <time>2025-02-23T10:05:59.000Z</time>
      </trkpt>
      <trkpt lat="48.54272" lon="-2.96092">
        <ele>132.6</ele>
        <time>2025-02-23T10:06:15.000Z</time>
      </trkpt>
      <trkpt lat="48.5423" lon="-2.96064">
        <ele>134.2</ele>
        <time>2025-02-23T10:06:32.000Z</time>
      </trkpt>
      <trkpt lat="48.54182" lon="-2.96032">
        <ele>136</ele>
        <time>2025-02-23T10:06:48.000Z</time>
      </trkpt>
      <trkpt lat="48.54133" lon="-2.95999">
        <ele>137.6</ele>
        <time>2025-02-23T10:07:04.000Z</time>
      </trkpt>
      <trkpt lat="48.54074" lon="-2.9595">
        <ele>138.4</ele>
        <time>2025-02-23T10:07:20.000Z</time>
      </trkpt>
      <trkpt lat="48.54021" lon="-2.95882">
        <ele>138.8</ele>
        <time>2025-02-23T10:07:36.000Z</time>
      </trkpt>
      <trkpt lat="48.53979" lon="-2.95804">
        <ele>139.4</ele>
        <time>2025-02-23T10:07:52.000Z</time>
      </trkpt>
      <trkpt lat="48.53946" lon="-2.9571">
        <ele>139</ele>
        <time>2025-02-23T10:08:08.000Z</time>
      </trkpt>
      <trkpt lat="48.53916" lon="-2.9561">
        <ele>138.6</ele>
        <time>2025-02-23T10:08:24.000Z</time>
      </trkpt>
      <trkpt lat="48.53883" lon="-2.95499">
        <ele>138.4</ele>
        <time>2025-02-23T10:08:41.000Z</time>
      </trkpt>
      <trkpt lat="48.53846" lon="-2.95383">
        <ele>137.6</ele>
        <time>2025-02-23T10:08:57.000Z</time>
      </trkpt>
      <trkpt lat="48.53798" lon="-2.95251">
        <ele>135.4</ele>
        <time>2025-02-23T10:09:13.000Z</time>
      </trkpt>
      <trkpt lat="48.5375" lon="-2.95131">
        <ele>135</ele>
        <time>2025-02-23T10:09:29.000Z</time>
      </trkpt>
      <trkpt lat="48.53709" lon="-2.9504">
        <ele>137.2</ele>
        <time>2025-02-23T10:09:45.000Z</time>
      </trkpt>
      <trkpt lat="48.53669" lon="-2.94942">
        <ele>138</ele>
        <time>2025-02-23T10:10:01.000Z</time>
      </trkpt>
      <trkpt lat="48.53629" lon="-2.94833">
        <ele>137.8</ele>
        <time>2025-02-23T10:10:17.000Z</time>
      </trkpt>
      <trkpt lat="48.53589" lon="-2.94718">
        <ele>138</ele>
        <time>2025-02-23T10:10:33.000Z</time>
      </trkpt>
      <trkpt lat="48.53553" lon="-2.94602">
        <ele>138</ele>
        <time>2025-02-23T10:10:49.000Z</time>
      </trkpt>
      <trkpt lat="48.53515" lon="-2.94477">
        <ele>137.6</ele>
        <time>2025-02-23T10:11:06.000Z</time>
      </trkpt>
      <trkpt lat="48.53482" lon="-2.94369">
        <ele>137.8</ele>
        <time>2025-02-23T10:11:22.000Z</time>
      </trkpt>
      <trkpt lat="48.53444" lon="-2.94256">
        <ele>139.6</ele>
        <time>2025-02-23T10:11:38.000Z</time>
      </trkpt>
      <trkpt lat="48.53408" lon="-2.94146">
        <ele>140</ele>
        <time>2025-02-23T10:11:54.000Z</time>
      </trkpt>
      <trkpt lat="48.5337" lon="-2.94031">
        <ele>140.2</ele>
        <time>2025-02-23T10:12:10.000Z</time>
      </trkpt>
      <trkpt lat="48.53331" lon="-2.93918">
        <ele>140.4</ele>
        <time>2025-02-23T10:12:26.000Z</time>
      </trkpt>
      <trkpt lat="48.53294" lon="-2.93813">
        <ele>141</ele>
        <time>2025-02-23T10:12:42.000Z</time>
      </trkpt>
      <trkpt lat="48.5325" lon="-2.93723">
        <ele>143.2</ele>
        <time>2025-02-23T10:12:58.000Z</time>
      </trkpt>
      <trkpt lat="48.53207" lon="-2.93667">
        <ele>146.4</ele>
        <time>2025-02-23T10:13:14.000Z</time>
      </trkpt>
      <trkpt lat="48.53163" lon="-2.93639">
        <ele>148.8</ele>
        <time>2025-02-23T10:13:31.000Z</time>
      </trkpt>
      <trkpt lat="48.53111" lon="-2.93607">
        <ele>149</ele>
        <time>2025-02-23T10:13:47.000Z</time>
      </trkpt>
      <trkpt lat="48.53085" lon="-2.9361">
        <ele>148.4</ele>
        <time>2025-02-23T10:13:54.000Z</time>
      </trkpt>
      <trkpt lat="48.53066" lon="-2.93601">
        <ele>147.8</ele>
        <time>2025-02-23T10:13:58.000Z</time>
      </trkpt>
      <trkpt lat="48.5306" lon="-2.93557">
        <ele>146.2</ele>
        <time>2025-02-23T10:14:03.000Z</time>
      </trkpt>
      <trkpt lat="48.531" lon="-2.93391">
        <ele>142.4</ele>
        <time>2025-02-23T10:14:19.000Z</time>
      </trkpt>
      <trkpt lat="48.53113" lon="-2.93311">
        <ele>141</ele>
        <time>2025-02-23T10:14:26.000Z</time>
      </trkpt>
      <trkpt lat="48.53109" lon="-2.93105">
        <ele>135</ele>
        <time>2025-02-23T10:14:42.000Z</time>
      </trkpt>
      <trkpt lat="48.53108" lon="-2.92897">
        <ele>129.6</ele>
        <time>2025-02-23T10:14:58.000Z</time>
      </trkpt>
      <trkpt lat="48.53106" lon="-2.92673">
        <ele>125.4</ele>
        <time>2025-02-23T10:15:14.000Z</time>
      </trkpt>
      <trkpt lat="48.53101" lon="-2.92514">
        <ele>127.4</ele>
        <time>2025-02-23T10:15:30.000Z</time>
      </trkpt>
      <trkpt lat="48.53098" lon="-2.92392">
        <ele>130</ele>
        <time>2025-02-23T10:15:46.000Z</time>
      </trkpt>
      <trkpt lat="48.53092" lon="-2.92271">
        <ele>130.8</ele>
        <time>2025-02-23T10:16:03.000Z</time>
      </trkpt>
      <trkpt lat="48.53077" lon="-2.92141">
        <ele>131.4</ele>
        <time>2025-02-23T10:16:19.000Z</time>
      </trkpt>
      <trkpt lat="48.53056" lon="-2.92001">
        <ele>130.8</ele>
        <time>2025-02-23T10:16:35.000Z</time>
      </trkpt>
      <trkpt lat="48.53037" lon="-2.91864">
        <ele>130.2</ele>
        <time>2025-02-23T10:16:51.000Z</time>
      </trkpt>
      <trkpt lat="48.53014" lon="-2.91715">
        <ele>129.8</ele>
        <time>2025-02-23T10:17:07.000Z</time>
      </trkpt>
      <trkpt lat="48.52994" lon="-2.9158">
        <ele>130.6</ele>
        <time>2025-02-23T10:17:23.000Z</time>
      </trkpt>
      <trkpt lat="48.52975" lon="-2.91463">
        <ele>132.2</ele>
        <time>2025-02-23T10:17:39.000Z</time>
      </trkpt>
      <trkpt lat="48.52958" lon="-2.91354">
        <ele>133</ele>
        <time>2025-02-23T10:17:55.000Z</time>
      </trkpt>
      <trkpt lat="48.5294" lon="-2.91246">
        <ele>133.8</ele>
        <time>2025-02-23T10:18:11.000Z</time>
      </trkpt>
      <trkpt lat="48.52924" lon="-2.91143">
        <ele>134.8</ele>
        <time>2025-02-23T10:18:28.000Z</time>
      </trkpt>
      <trkpt lat="48.52907" lon="-2.91037">
        <ele>136.2</ele>
        <time>2025-02-23T10:18:44.000Z</time>
      </trkpt>
      <trkpt lat="48.52889" lon="-2.90928">
        <ele>137</ele>
        <time>2025-02-23T10:19:00.000Z</time>
      </trkpt>
      <trkpt lat="48.52872" lon="-2.90824">
        <ele>137.8</ele>
        <time>2025-02-23T10:19:16.000Z</time>
      </trkpt>
      <trkpt lat="48.52856" lon="-2.9072">
        <ele>138.8</ele>
        <time>2025-02-23T10:19:32.000Z</time>
      </trkpt>
      <trkpt lat="48.52837" lon="-2.90598">
        <ele>138.6</ele>
        <time>2025-02-23T10:19:48.000Z</time>
      </trkpt>
      <trkpt lat="48.52817" lon="-2.90473">
        <ele>137.8</ele>
        <time>2025-02-23T10:20:04.000Z</time>
      </trkpt>
      <trkpt lat="48.52797" lon="-2.90343">
        <ele>138.4</ele>
        <time>2025-02-23T10:20:20.000Z</time>
      </trkpt>
      <trkpt lat="48.52781" lon="-2.90242">
        <ele>139.8</ele>
        <time>2025-02-23T10:20:37.000Z</time>
      </trkpt>
      <trkpt lat="48.52765" lon="-2.90139">
        <ele>142</ele>
        <time>2025-02-23T10:20:53.000Z</time>
      </trkpt>
      <trkpt lat="48.52746" lon="-2.90046">
        <ele>143.8</ele>
        <time>2025-02-23T10:21:09.000Z</time>
      </trkpt>
      <trkpt lat="48.52719" lon="-2.89959">
        <ele>145.4</ele>
        <time>2025-02-23T10:21:25.000Z</time>
      </trkpt>
      <trkpt lat="48.52678" lon="-2.8991">
        <ele>147.2</ele>
        <time>2025-02-23T10:21:41.000Z</time>
      </trkpt>
      <trkpt lat="48.52624" lon="-2.89893">
        <ele>148.6</ele>
        <time>2025-02-23T10:21:57.000Z</time>
      </trkpt>
      <trkpt lat="48.52582" lon="-2.89863">
        <ele>149.4</ele>
        <time>2025-02-23T10:22:12.000Z</time>
      </trkpt>
      <trkpt lat="48.52535" lon="-2.89815">
        <ele>150.8</ele>
        <time>2025-02-23T10:22:28.000Z</time>
      </trkpt>
      <trkpt lat="48.52517" lon="-2.89781">
        <ele>151.2</ele>
        <time>2025-02-23T10:22:36.000Z</time>
      </trkpt>
      <trkpt lat="48.52521" lon="-2.89738">
        <ele>151.4</ele>
        <time>2025-02-23T10:22:50.000Z</time>
      </trkpt>
      <trkpt lat="48.52502" lon="-2.89699">
        <ele>152.8</ele>
        <time>2025-02-23T10:24:09.000Z</time>
      </trkpt>
      <trkpt lat="48.5245" lon="-2.89668">
        <ele>153.6</ele>
        <time>2025-02-23T10:24:25.000Z</time>
      </trkpt>
      <trkpt lat="48.52378" lon="-2.89651">
        <ele>154.6</ele>
        <time>2025-02-23T10:24:41.000Z</time>
      </trkpt>
      <trkpt lat="48.52316" lon="-2.89628">
        <ele>156.4</ele>
        <time>2025-02-23T10:24:57.000Z</time>
      </trkpt>
      <trkpt lat="48.5227" lon="-2.89604">
        <ele>159</ele>
        <time>2025-02-23T10:25:13.000Z</time>
      </trkpt>
      <trkpt lat="48.52226" lon="-2.89574">
        <ele>160.4</ele>
        <time>2025-02-23T10:25:30.000Z</time>
      </trkpt>
      <trkpt lat="48.52185" lon="-2.89544">
        <ele>162.8</ele>
        <time>2025-02-23T10:25:46.000Z</time>
      </trkpt>
      <trkpt lat="48.52146" lon="-2.89517">
        <ele>164.4</ele>
        <time>2025-02-23T10:26:02.000Z</time>
      </trkpt>
      <trkpt lat="48.5211" lon="-2.89491">
        <ele>166.6</ele>
        <time>2025-02-23T10:26:18.000Z</time>
      </trkpt>
      <trkpt lat="48.52075" lon="-2.89467">
        <ele>168.6</ele>
        <time>2025-02-23T10:26:34.000Z</time>
      </trkpt>
      <trkpt lat="48.5204" lon="-2.89442">
        <ele>171</ele>
        <time>2025-02-23T10:26:50.000Z</time>
      </trkpt>
      <trkpt lat="48.52014" lon="-2.89418">
        <ele>173.6</ele>
        <time>2025-02-23T10:27:04.000Z</time>
      </trkpt>
      <trkpt lat="48.51989" lon="-2.89379">
        <ele>175.6</ele>
        <time>2025-02-23T10:27:20.000Z</time>
      </trkpt>
      <trkpt lat="48.51959" lon="-2.89318">
        <ele>176.8</ele>
        <time>2025-02-23T10:27:36.000Z</time>
      </trkpt>
      <trkpt lat="48.51927" lon="-2.89255">
        <ele>177.6</ele>
        <time>2025-02-23T10:27:53.000Z</time>
      </trkpt>
      <trkpt lat="48.51896" lon="-2.89196">
        <ele>178.6</ele>
        <time>2025-02-23T10:28:09.000Z</time>
      </trkpt>
      <trkpt lat="48.51865" lon="-2.89123">
        <ele>179.8</ele>
        <time>2025-02-23T10:28:25.000Z</time>
      </trkpt>
      <trkpt lat="48.51835" lon="-2.8905">
        <ele>181.2</ele>
        <time>2025-02-23T10:28:41.000Z</time>
      </trkpt>
      <trkpt lat="48.51797" lon="-2.88992">
        <ele>181.2</ele>
        <time>2025-02-23T10:28:57.000Z</time>
      </trkpt>
      <trkpt lat="48.5175" lon="-2.88923">
        <ele>181.2</ele>
        <time>2025-02-23T10:29:13.000Z</time>
      </trkpt>
      <trkpt lat="48.5171" lon="-2.88858">
        <ele>180.8</ele>
        <time>2025-02-23T10:29:28.000Z</time>
      </trkpt>
      <trkpt lat="48.51682" lon="-2.88775">
        <ele>181.6</ele>
        <time>2025-02-23T10:29:44.000Z</time>
      </trkpt>
      <trkpt lat="48.51661" lon="-2.88689">
        <ele>182.8</ele>
        <time>2025-02-23T10:30:00.000Z</time>
      </trkpt>
      <trkpt lat="48.51645" lon="-2.88601">
        <ele>183.4</ele>
        <time>2025-02-23T10:30:17.000Z</time>
      </trkpt>
      <trkpt lat="48.51623" lon="-2.88535">
        <ele>183.4</ele>
        <time>2025-02-23T10:30:31.000Z</time>
      </trkpt>
      <trkpt lat="48.51567" lon="-2.88469">
        <ele>182.6</ele>
        <time>2025-02-23T10:30:47.000Z</time>
      </trkpt>
      <trkpt lat="48.51538" lon="-2.88443">
        <ele>182.8</ele>
        <time>2025-02-23T10:31:03.000Z</time>
      </trkpt>
      <trkpt lat="48.51507" lon="-2.88448">
        <ele>182.4</ele>
        <time>2025-02-23T10:31:51.000Z</time>
      </trkpt>
      <trkpt lat="48.51472" lon="-2.88436">
        <ele>180</ele>
        <time>2025-02-23T10:32:02.000Z</time>
      </trkpt>
      <trkpt lat="48.51476" lon="-2.884">
        <ele>179.6</ele>
        <time>2025-02-23T10:32:08.000Z</time>
      </trkpt>
      <trkpt lat="48.51509" lon="-2.88352">
        <ele>179.2</ele>
        <time>2025-02-23T10:32:20.000Z</time>
      </trkpt>
      <trkpt lat="48.5153" lon="-2.88316">
        <ele>178</ele>
        <time>2025-02-23T10:32:36.000Z</time>
      </trkpt>
      <trkpt lat="48.51553" lon="-2.88225">
        <ele>175.4</ele>
        <time>2025-02-23T10:32:48.000Z</time>
      </trkpt>
      <trkpt lat="48.51598" lon="-2.88158">
        <ele>173.2</ele>
        <time>2025-02-23T10:32:58.000Z</time>
      </trkpt>
      <trkpt lat="48.51644" lon="-2.88064">
        <ele>170.6</ele>
        <time>2025-02-23T10:33:07.000Z</time>
      </trkpt>
      <trkpt lat="48.51701" lon="-2.87993">
        <ele>171</ele>
        <time>2025-02-23T10:33:18.000Z</time>
      </trkpt>
      <trkpt lat="48.51744" lon="-2.87932">
        <ele>170.8</ele>
        <time>2025-02-23T10:33:30.000Z</time>
      </trkpt>
      <trkpt lat="48.51788" lon="-2.87846">
        <ele>169.6</ele>
        <time>2025-02-23T10:33:42.000Z</time>
      </trkpt>
      <trkpt lat="48.51838" lon="-2.87813">
        <ele>169.2</ele>
        <time>2025-02-23T10:33:50.000Z</time>
      </trkpt>
      <trkpt lat="48.51912" lon="-2.87781">
        <ele>172</ele>
        <time>2025-02-23T10:34:06.000Z</time>
      </trkpt>
      <trkpt lat="48.51976" lon="-2.87745">
        <ele>173</ele>
        <time>2025-02-23T10:34:22.000Z</time>
      </trkpt>
      <trkpt lat="48.52048" lon="-2.87704">
        <ele>172</ele>
        <time>2025-02-23T10:34:38.000Z</time>
      </trkpt>
      <trkpt lat="48.52132" lon="-2.87657">
        <ele>168.6</ele>
        <time>2025-02-23T10:34:55.000Z</time>
      </trkpt>
      <trkpt lat="48.52177" lon="-2.87645">
        <ele>165.6</ele>
        <time>2025-02-23T10:35:03.000Z</time>
      </trkpt>
      <trkpt lat="48.52237" lon="-2.8766">
        <ele>162.6</ele>
        <time>2025-02-23T10:35:16.000Z</time>
      </trkpt>
      <trkpt lat="48.52244" lon="-2.87678">
        <ele>162.4</ele>
        <time>2025-02-23T10:35:20.000Z</time>
      </trkpt>
      <trkpt lat="48.52239" lon="-2.87805">
        <ele>165.6</ele>
        <time>2025-02-23T10:35:36.000Z</time>
      </trkpt>
      <trkpt lat="48.52238" lon="-2.87894">
        <ele>168.2</ele>
        <time>2025-02-23T10:35:52.000Z</time>
      </trkpt>
      <trkpt lat="48.52239" lon="-2.87982">
        <ele>170</ele>
        <time>2025-02-23T10:36:08.000Z</time>
      </trkpt>
      <trkpt lat="48.52246" lon="-2.88084">
        <ele>170.8</ele>
        <time>2025-02-23T10:36:24.000Z</time>
      </trkpt>
      <trkpt lat="48.52255" lon="-2.8819">
        <ele>169.8</ele>
        <time>2025-02-23T10:36:40.000Z</time>
      </trkpt>
      <trkpt lat="48.52268" lon="-2.88324">
        <ele>168.2</ele>
        <time>2025-02-23T10:36:56.000Z</time>
      </trkpt>
      <trkpt lat="48.52302" lon="-2.88499">
        <ele>165.4</ele>
        <time>2025-02-23T10:37:12.000Z</time>
      </trkpt>
      <trkpt lat="48.5235" lon="-2.88694">
        <ele>163.2</ele>
        <time>2025-02-23T10:37:29.000Z</time>
      </trkpt>
      <trkpt lat="48.52376" lon="-2.88815">
        <ele>163.4</ele>
        <time>2025-02-23T10:37:40.000Z</time>
      </trkpt>
      <trkpt lat="48.52375" lon="-2.88928">
        <ele>164.6</ele>
        <time>2025-02-23T10:37:52.000Z</time>
      </trkpt>
      <trkpt lat="48.52392" lon="-2.88991">
        <ele>165</ele>
        <time>2025-02-23T10:37:58.000Z</time>
      </trkpt>
      <trkpt lat="48.52455" lon="-2.89077">
        <ele>165</ele>
        <time>2025-02-23T10:38:10.000Z</time>
      </trkpt>
      <trkpt lat="48.52486" lon="-2.8916">
        <ele>164.2</ele>
        <time>2025-02-23T10:38:19.000Z</time>
      </trkpt>
      <trkpt lat="48.52534" lon="-2.89314">
        <ele>162.2</ele>
        <time>2025-02-23T10:38:35.000Z</time>
      </trkpt>
      <trkpt lat="48.52563" lon="-2.89425">
        <ele>160.6</ele>
        <time>2025-02-23T10:38:46.000Z</time>
      </trkpt>
      <trkpt lat="48.52558" lon="-2.89545">
        <ele>157.8</ele>
        <time>2025-02-23T10:38:57.000Z</time>
      </trkpt>
      <trkpt lat="48.52548" lon="-2.8967">
        <ele>155</ele>
        <time>2025-02-23T10:39:13.000Z</time>
      </trkpt>
      <trkpt lat="48.52537" lon="-2.89724">
        <ele>153.8</ele>
        <time>2025-02-23T10:39:24.000Z</time>
      </trkpt>
      <trkpt lat="48.52524" lon="-2.89744">
        <ele>153.6</ele>
        <time>2025-02-23T10:39:51.000Z</time>
      </trkpt>
      <trkpt lat="48.52521" lon="-2.89781">
        <ele>152.6</ele>
        <time>2025-02-23T10:39:57.000Z</time>
      </trkpt>
      <trkpt lat="48.52538" lon="-2.89813">
        <ele>152</ele>
        <time>2025-02-23T10:40:02.000Z</time>
      </trkpt>
      <trkpt lat="48.52608" lon="-2.89879">
        <ele>150.4</ele>
        <time>2025-02-23T10:40:15.000Z</time>
      </trkpt>
      <trkpt lat="48.52672" lon="-2.89899">
        <ele>149.8</ele>
        <time>2025-02-23T10:40:24.000Z</time>
      </trkpt>
      <trkpt lat="48.52707" lon="-2.89928">
        <ele>148.6</ele>
        <time>2025-02-23T10:40:30.000Z</time>
      </trkpt>
      <trkpt lat="48.52734" lon="-2.89982">
        <ele>148.4</ele>
        <time>2025-02-23T10:40:36.000Z</time>
      </trkpt>
      <trkpt lat="48.52768" lon="-2.90129">
        <ele>145.2</ele>
        <time>2025-02-23T10:40:49.000Z</time>
      </trkpt>
      <trkpt lat="48.52798" lon="-2.90321">
        <ele>141.6</ele>
        <time>2025-02-23T10:41:05.000Z</time>
      </trkpt>
      <trkpt lat="48.52826" lon="-2.90508">
        <ele>140.2</ele>
        <time>2025-02-23T10:41:21.000Z</time>
      </trkpt>
      <trkpt lat="48.52851" lon="-2.90662">
        <ele>140.6</ele>
        <time>2025-02-23T10:41:37.000Z</time>
      </trkpt>
      <trkpt lat="48.52872" lon="-2.90801">
        <ele>140.2</ele>
        <time>2025-02-23T10:41:53.000Z</time>
      </trkpt>
      <trkpt lat="48.52894" lon="-2.9094">
        <ele>138.4</ele>
        <time>2025-02-23T10:42:10.000Z</time>
      </trkpt>
      <trkpt lat="48.5292" lon="-2.91093">
        <ele>137.6</ele>
        <time>2025-02-23T10:42:26.000Z</time>
      </trkpt>
      <trkpt lat="48.52947" lon="-2.91264">
        <ele>135.8</ele>
        <time>2025-02-23T10:42:42.000Z</time>
      </trkpt>
      <trkpt lat="48.52972" lon="-2.91419">
        <ele>134.2</ele>
        <time>2025-02-23T10:42:58.000Z</time>
      </trkpt>
      <trkpt lat="48.52995" lon="-2.91564">
        <ele>132.8</ele>
        <time>2025-02-23T10:43:14.000Z</time>
      </trkpt>
      <trkpt lat="48.53019" lon="-2.9172">
        <ele>131.8</ele>
        <time>2025-02-23T10:43:30.000Z</time>
      </trkpt>
      <trkpt lat="48.53039" lon="-2.91858">
        <ele>132</ele>
        <time>2025-02-23T10:43:46.000Z</time>
      </trkpt>
      <trkpt lat="48.53058" lon="-2.91989">
        <ele>132.6</ele>
        <time>2025-02-23T10:44:02.000Z</time>
      </trkpt>
      <trkpt lat="48.53077" lon="-2.92119">
        <ele>133</ele>
        <time>2025-02-23T10:44:18.000Z</time>
      </trkpt>
      <trkpt lat="48.53093" lon="-2.92241">
        <ele>133.8</ele>
        <time>2025-02-23T10:44:35.000Z</time>
      </trkpt>
      <trkpt lat="48.53101" lon="-2.92368">
        <ele>133.4</ele>
        <time>2025-02-23T10:44:51.000Z</time>
      </trkpt>
      <trkpt lat="48.53106" lon="-2.92532">
        <ele>130.8</ele>
        <time>2025-02-23T10:45:07.000Z</time>
      </trkpt>
      <trkpt lat="48.5311" lon="-2.92701">
        <ele>127.6</ele>
        <time>2025-02-23T10:45:23.000Z</time>
      </trkpt>
      <trkpt lat="48.53112" lon="-2.92837">
        <ele>128.2</ele>
        <time>2025-02-23T10:45:39.000Z</time>
      </trkpt>
      <trkpt lat="48.53113" lon="-2.92933">
        <ele>130.8</ele>
        <time>2025-02-23T10:45:55.000Z</time>
      </trkpt>
      <trkpt lat="48.53113" lon="-2.93008">
        <ele>133.4</ele>
        <time>2025-02-23T10:46:11.000Z</time>
      </trkpt>
      <trkpt lat="48.53113" lon="-2.93077">
        <ele>135.4</ele>
        <time>2025-02-23T10:46:27.000Z</time>
      </trkpt>
      <trkpt lat="48.53113" lon="-2.93139">
        <ele>136.6</ele>
        <time>2025-02-23T10:46:43.000Z</time>
      </trkpt>
      <trkpt lat="48.53114" lon="-2.93202">
        <ele>138.4</ele>
        <time>2025-02-23T10:47:00.000Z</time>
      </trkpt>
      <trkpt lat="48.53115" lon="-2.93266">
        <ele>140</ele>
        <time>2025-02-23T10:47:16.000Z</time>
      </trkpt>
      <trkpt lat="48.53114" lon="-2.93332">
        <ele>142.8</ele>
        <time>2025-02-23T10:47:32.000Z</time>
      </trkpt>
      <trkpt lat="48.53103" lon="-2.93393">
        <ele>144.4</ele>
        <time>2025-02-23T10:47:48.000Z</time>
      </trkpt>
      <trkpt lat="48.53087" lon="-2.93448">
        <ele>145.4</ele>
        <time>2025-02-23T10:48:04.000Z</time>
      </trkpt>
      <trkpt lat="48.53073" lon="-2.93499">
        <ele>147</ele>
        <time>2025-02-23T10:48:19.000Z</time>
      </trkpt>
      <trkpt lat="48.53081" lon="-2.93524">
        <ele>148.2</ele>
        <time>2025-02-23T10:48:27.000Z</time>
      </trkpt>
      <trkpt lat="48.53107" lon="-2.93546">
        <ele>150.6</ele>
        <time>2025-02-23T10:48:39.000Z</time>
      </trkpt>
      <trkpt lat="48.53112" lon="-2.93592">
        <ele>150.8</ele>
        <time>2025-02-23T10:48:50.000Z</time>
      </trkpt>
      <trkpt lat="48.53142" lon="-2.93618">
        <ele>151.2</ele>
        <time>2025-02-23T10:49:01.000Z</time>
      </trkpt>
      <trkpt lat="48.53201" lon="-2.93653">
        <ele>150.8</ele>
        <time>2025-02-23T10:49:18.000Z</time>
      </trkpt>
      <trkpt lat="48.53247" lon="-2.93703">
        <ele>148.6</ele>
        <time>2025-02-23T10:49:27.000Z</time>
      </trkpt>
      <trkpt lat="48.53316" lon="-2.93852">
        <ele>144</ele>
        <time>2025-02-23T10:49:42.000Z</time>
      </trkpt>
      <trkpt lat="48.53351" lon="-2.93948">
        <ele>143.4</ele>
        <time>2025-02-23T10:49:52.000Z</time>
      </trkpt>
      <trkpt lat="48.53403" lon="-2.93979">
        <ele>143.4</ele>
        <time>2025-02-23T10:50:01.000Z</time>
      </trkpt>
      <trkpt lat="48.53476" lon="-2.94026">
        <ele>143.8</ele>
        <time>2025-02-23T10:50:17.000Z</time>
      </trkpt>
      <trkpt lat="48.53542" lon="-2.94073">
        <ele>144.2</ele>
        <time>2025-02-23T10:50:31.000Z</time>
      </trkpt>
      <trkpt lat="48.53597" lon="-2.94153">
        <ele>145</ele>
        <time>2025-02-23T10:50:45.000Z</time>
      </trkpt>
      <trkpt lat="48.53645" lon="-2.94234">
        <ele>145.6</ele>
        <time>2025-02-23T10:50:59.000Z</time>
      </trkpt>
      <trkpt lat="48.53727" lon="-2.94316">
        <ele>145.2</ele>
        <time>2025-02-23T10:51:14.000Z</time>
      </trkpt>
      <trkpt lat="48.53807" lon="-2.9439">
        <ele>144.8</ele>
        <time>2025-02-23T10:51:30.000Z</time>
      </trkpt>
      <trkpt lat="48.53879" lon="-2.94462">
        <ele>144.6</ele>
        <time>2025-02-23T10:51:47.000Z</time>
      </trkpt>
      <trkpt lat="48.53959" lon="-2.9452">
        <ele>144.6</ele>
        <time>2025-02-23T10:52:03.000Z</time>
      </trkpt>
      <trkpt lat="48.54033" lon="-2.94555">
        <ele>144.8</ele>
        <time>2025-02-23T10:52:17.000Z</time>
      </trkpt>
      <trkpt lat="48.54115" lon="-2.94561">
        <ele>145.6</ele>
        <time>2025-02-23T10:52:33.000Z</time>
      </trkpt>
      <trkpt lat="48.54199" lon="-2.94567">
        <ele>146.2</ele>
        <time>2025-02-23T10:52:49.000Z</time>
      </trkpt>
      <trkpt lat="48.54282" lon="-2.94566">
        <ele>146</ele>
        <time>2025-02-23T10:53:05.000Z</time>
      </trkpt>
      <trkpt lat="48.5438" lon="-2.9456">
        <ele>145</ele>
        <time>2025-02-23T10:53:21.000Z</time>
      </trkpt>
      <trkpt lat="48.54471" lon="-2.94541">
        <ele>145.2</ele>
        <time>2025-02-23T10:53:37.000Z</time>
      </trkpt>
      <trkpt lat="48.54551" lon="-2.94534">
        <ele>145</ele>
        <time>2025-02-23T10:53:52.000Z</time>
      </trkpt>
      <trkpt lat="48.54633" lon="-2.94546">
        <ele>144.8</ele>
        <time>2025-02-23T10:54:08.000Z</time>
      </trkpt>
      <trkpt lat="48.54704" lon="-2.9458">
        <ele>143.8</ele>
        <time>2025-02-23T10:54:24.000Z</time>
      </trkpt>
      <trkpt lat="48.54713" lon="-2.94582">
        <ele>143.2</ele>
        <time>2025-02-23T10:55:20.000Z</time>
      </trkpt>
      <trkpt lat="48.54766" lon="-2.94601">
        <ele>142.4</ele>
        <time>2025-02-23T10:58:17.000Z</time>
      </trkpt>
      <trkpt lat="48.5484" lon="-2.94617">
        <ele>139.6</ele>
        <time>2025-02-23T10:58:33.000Z</time>
      </trkpt>
      <trkpt lat="48.54954" lon="-2.94647">
        <ele>137.4</ele>
        <time>2025-02-23T10:58:50.000Z</time>
      </trkpt>
      <trkpt lat="48.55055" lon="-2.94674">
        <ele>135</ele>
        <time>2025-02-23T10:59:03.000Z</time>
      </trkpt>
      <trkpt lat="48.55177" lon="-2.94669">
        <ele>133.2</ele>
        <time>2025-02-23T10:59:19.000Z</time>
      </trkpt>
      <trkpt lat="48.5523" lon="-2.94671">
        <ele>130.8</ele>
        <time>2025-02-23T10:59:33.000Z</time>
      </trkpt>
      <trkpt lat="48.55258" lon="-2.94669">
        <ele>129.4</ele>
        <time>2025-02-23T11:01:58.000Z</time>
      </trkpt>
      <trkpt lat="48.55336" lon="-2.94667">
        <ele>127</ele>
        <time>2025-02-23T11:02:11.000Z</time>
      </trkpt>
      <trkpt lat="48.55432" lon="-2.9463">
        <ele>124.2</ele>
        <time>2025-02-23T11:02:24.000Z</time>
      </trkpt>
      <trkpt lat="48.55499" lon="-2.9463">
        <ele>123.4</ele>
        <time>2025-02-23T11:02:34.000Z</time>
      </trkpt>
      <trkpt lat="48.55574" lon="-2.94649">
        <ele>120.8</ele>
        <time>2025-02-23T11:02:50.000Z</time>
      </trkpt>
      <trkpt lat="48.55587" lon="-2.94673">
        <ele>120.4</ele>
        <time>2025-02-23T11:02:56.000Z</time>
      </trkpt>
      <trkpt lat="48.55594" lon="-2.94722">
        <ele>119.8</ele>
        <time>2025-02-23T11:03:06.000Z</time>
      </trkpt>
      <trkpt lat="48.55635" lon="-2.94773">
        <ele>119.6</ele>
        <time>2025-02-23T11:03:20.000Z</time>
      </trkpt>
      <trkpt lat="48.55669" lon="-2.94838">
        <ele>119</ele>
        <time>2025-02-23T11:03:34.000Z</time>
      </trkpt>
      <trkpt lat="48.55696" lon="-2.94958">
        <ele>115.4</ele>
        <time>2025-02-23T11:03:49.000Z</time>
      </trkpt>
      <trkpt lat="48.557" lon="-2.9501">
        <ele>114.4</ele>
        <time>2025-02-23T11:04:01.000Z</time>
      </trkpt>
      <trkpt lat="48.55694" lon="-2.95072">
        <ele>114.4</ele>
        <time>2025-02-23T11:04:12.000Z</time>
      </trkpt>
      <trkpt lat="48.55686" lon="-2.95153">
        <ele>113.8</ele>
        <time>2025-02-23T11:04:28.000Z</time>
      </trkpt>
      <trkpt lat="48.55679" lon="-2.95229">
        <ele>113.2</ele>
        <time>2025-02-23T11:04:44.000Z</time>
      </trkpt>
      <trkpt lat="48.55668" lon="-2.95333">
        <ele>112</ele>
        <time>2025-02-23T11:05:00.000Z</time>
      </trkpt>
      <trkpt lat="48.55681" lon="-2.95454">
        <ele>109.6</ele>
        <time>2025-02-23T11:05:16.000Z</time>
      </trkpt>
      <trkpt lat="48.55721" lon="-2.95579">
        <ele>105.6</ele>
        <time>2025-02-23T11:05:27.000Z</time>
      </trkpt>
      <trkpt lat="48.55752" lon="-2.95747">
        <ele>99.4</ele>
        <time>2025-02-23T11:05:39.000Z</time>
      </trkpt>
      <trkpt lat="48.55774" lon="-2.95829">
        <ele>96.4</ele>
        <time>2025-02-23T11:05:45.000Z</time>
      </trkpt>
      <trkpt lat="48.55805" lon="-2.95889">
        <ele>93.4</ele>
        <time>2025-02-23T11:05:50.000Z</time>
      </trkpt>
      <trkpt lat="48.55819" lon="-2.95913">
        <ele>92</ele>
        <time>2025-02-23T11:05:53.000Z</time>
      </trkpt>
      <trkpt lat="48.55874" lon="-2.96021">
        <ele>89.4</ele>
        <time>2025-02-23T11:06:02.000Z</time>
      </trkpt>
      <trkpt lat="48.55949" lon="-2.96147">
        <ele>90.6</ele>
        <time>2025-02-23T11:06:16.000Z</time>
      </trkpt>
      <trkpt lat="48.55998" lon="-2.96184">
        <ele>93.6</ele>
        <time>2025-02-23T11:06:26.000Z</time>
      </trkpt>
      <trkpt lat="48.56057" lon="-2.96207">
        <ele>96.6</ele>
        <time>2025-02-23T11:06:37.000Z</time>
      </trkpt>
      <trkpt lat="48.56122" lon="-2.9624">
        <ele>100</ele>
        <time>2025-02-23T11:06:52.000Z</time>
      </trkpt>
      <trkpt lat="48.56175" lon="-2.96267">
        <ele>103</ele>
        <time>2025-02-23T11:07:08.000Z</time>
      </trkpt>
      <trkpt lat="48.56213" lon="-2.96329">
        <ele>105</ele>
        <time>2025-02-23T11:07:24.000Z</time>
      </trkpt>
      <trkpt lat="48.56235" lon="-2.96383">
        <ele>107.4</ele>
        <time>2025-02-23T11:07:37.000Z</time>
      </trkpt>
      <trkpt lat="48.56245" lon="-2.96456">
        <ele>109.8</ele>
        <time>2025-02-23T11:07:53.000Z</time>
      </trkpt>
      <trkpt lat="48.56245" lon="-2.96524">
        <ele>112</ele>
        <time>2025-02-23T11:08:08.000Z</time>
      </trkpt>
      <trkpt lat="48.56241" lon="-2.96595">
        <ele>114</ele>
        <time>2025-02-23T11:08:25.000Z</time>
      </trkpt>
      <trkpt lat="48.56227" lon="-2.96672">
        <ele>116.6</ele>
        <time>2025-02-23T11:08:41.000Z</time>
      </trkpt>
      <trkpt lat="48.56208" lon="-2.96753">
        <ele>119.4</ele>
        <time>2025-02-23T11:08:57.000Z</time>
      </trkpt>
      <trkpt lat="48.56197" lon="-2.96832">
        <ele>120.8</ele>
        <time>2025-02-23T11:09:13.000Z</time>
      </trkpt>
      <trkpt lat="48.56203" lon="-2.96911">
        <ele>122</ele>
        <time>2025-02-23T11:09:29.000Z</time>
      </trkpt>
      <trkpt lat="48.56209" lon="-2.9695">
        <ele>122.6</ele>
        <time>2025-02-23T11:09:42.000Z</time>
      </trkpt>
      <trkpt lat="48.56217" lon="-2.9702">
        <ele>122.8</ele>
        <time>2025-02-23T11:11:21.000Z</time>
      </trkpt>
      <trkpt lat="48.56245" lon="-2.97117">
        <ele>125.2</ele>
        <time>2025-02-23T11:11:34.000Z</time>
      </trkpt>
      <trkpt lat="48.56263" lon="-2.97209">
        <ele>125.8</ele>
        <time>2025-02-23T11:11:48.000Z</time>
      </trkpt>
      <trkpt lat="48.56258" lon="-2.973">
        <ele>127.2</ele>
        <time>2025-02-23T11:12:02.000Z</time>
      </trkpt>
      <trkpt lat="48.56245" lon="-2.97396">
        <ele>128</ele>
        <time>2025-02-23T11:12:18.000Z</time>
      </trkpt>
      <trkpt lat="48.56242" lon="-2.975">
        <ele>128.4</ele>
        <time>2025-02-23T11:12:34.000Z</time>
      </trkpt>
      <trkpt lat="48.56246" lon="-2.97619">
        <ele>128</ele>
        <time>2025-02-23T11:12:50.000Z</time>
      </trkpt>
      <trkpt lat="48.56251" lon="-2.9772">
        <ele>129</ele>
        <time>2025-02-23T11:13:07.000Z</time>
      </trkpt>
      <trkpt lat="48.56258" lon="-2.97804">
        <ele>129.8</ele>
        <time>2025-02-23T11:13:23.000Z</time>
      </trkpt>
      <trkpt lat="48.5627" lon="-2.97845">
        <ele>129.6</ele>
        <time>2025-02-23T11:13:34.000Z</time>
      </trkpt>
      <trkpt lat="48.56306" lon="-2.97864">
        <ele>129.4</ele>
        <time>2025-02-23T11:13:43.000Z</time>
      </trkpt>
      <trkpt lat="48.56311" lon="-2.97944">
        <ele>129.2</ele>
        <time>2025-02-23T11:13:54.000Z</time>
      </trkpt>
      <trkpt lat="48.56312" lon="-2.98059">
        <ele>127.6</ele>
        <time>2025-02-23T11:14:10.000Z</time>
      </trkpt>
      <trkpt lat="48.56309" lon="-2.98218">
        <ele>123.8</ele>
        <time>2025-02-23T11:14:26.000Z</time>
      </trkpt>
      <trkpt lat="48.56302" lon="-2.98336">
        <ele>123.2</ele>
        <time>2025-02-23T11:14:42.000Z</time>
      </trkpt>
      <trkpt lat="48.56297" lon="-2.98439">
        <ele>123.8</ele>
        <time>2025-02-23T11:14:58.000Z</time>
      </trkpt>
      <trkpt lat="48.56291" lon="-2.98534">
        <ele>124.4</ele>
        <time>2025-02-23T11:15:14.000Z</time>
      </trkpt>
      <trkpt lat="48.56283" lon="-2.98629">
        <ele>125.6</ele>
        <time>2025-02-23T11:15:31.000Z</time>
      </trkpt>
      <trkpt lat="48.56275" lon="-2.98715">
        <ele>128</ele>
        <time>2025-02-23T11:15:47.000Z</time>
      </trkpt>
      <trkpt lat="48.56269" lon="-2.988">
        <ele>128.4</ele>
        <time>2025-02-23T11:16:03.000Z</time>
      </trkpt>
      <trkpt lat="48.56261" lon="-2.98894">
        <ele>129.4</ele>
        <time>2025-02-23T11:16:19.000Z</time>
      </trkpt>
      <trkpt lat="48.56255" lon="-2.98995">
        <ele>130.2</ele>
        <time>2025-02-23T11:16:35.000Z</time>
      </trkpt>
      <trkpt lat="48.56251" lon="-2.99111">
        <ele>129.6</ele>
        <time>2025-02-23T11:16:51.000Z</time>
      </trkpt>
      <trkpt lat="48.56247" lon="-2.9921">
        <ele>129.2</ele>
        <time>2025-02-23T11:17:07.000Z</time>
      </trkpt>
      <trkpt lat="48.56242" lon="-2.99282">
        <ele>129.4</ele>
        <time>2025-02-23T11:17:23.000Z</time>
      </trkpt>
      <trkpt lat="48.56229" lon="-2.99333">
        <ele>129.8</ele>
        <time>2025-02-23T11:17:37.000Z</time>
      </trkpt>
      <trkpt lat="48.56156" lon="-2.99446">
        <ele>125.2</ele>
        <time>2025-02-23T11:17:54.000Z</time>
      </trkpt>
      <trkpt lat="48.56074" lon="-2.99568">
        <ele>120.6</ele>
        <time>2025-02-23T11:18:10.000Z</time>
      </trkpt>
      <trkpt lat="48.55998" lon="-2.99686">
        <ele>116.4</ele>
        <time>2025-02-23T11:18:23.000Z</time>
      </trkpt>
      <trkpt lat="48.5595" lon="-2.99791">
        <ele>118.8</ele>
        <time>2025-02-23T11:18:39.000Z</time>
      </trkpt>
      <trkpt lat="48.55916" lon="-2.99867">
        <ele>120.6</ele>
        <time>2025-02-23T11:18:55.000Z</time>
      </trkpt>
      <trkpt lat="48.55885" lon="-2.9994">
        <ele>122.2</ele>
        <time>2025-02-23T11:19:11.000Z</time>
      </trkpt>
      <trkpt lat="48.55852" lon="-3.00016">
        <ele>122.2</ele>
        <time>2025-02-23T11:19:27.000Z</time>
      </trkpt>
      <trkpt lat="48.55839" lon="-3.00063">
        <ele>122.2</ele>
        <time>2025-02-23T11:19:36.000Z</time>
      </trkpt>
      <trkpt lat="48.55858" lon="-3.00156">
        <ele>122.6</ele>
        <time>2025-02-23T11:19:52.000Z</time>
      </trkpt>
      <trkpt lat="48.55877" lon="-3.0026">
        <ele>121.8</ele>
        <time>2025-02-23T11:20:08.000Z</time>
      </trkpt>
      <trkpt lat="48.55891" lon="-3.00357">
        <ele>121</ele>
        <time>2025-02-23T11:20:25.000Z</time>
      </trkpt>
      <trkpt lat="48.55901" lon="-3.0046">
        <ele>119.6</ele>
        <time>2025-02-23T11:20:41.000Z</time>
      </trkpt>
      <trkpt lat="48.55905" lon="-3.00585">
        <ele>117.6</ele>
        <time>2025-02-23T11:20:57.000Z</time>
      </trkpt>
      <trkpt lat="48.559" lon="-3.00722">
        <ele>114.6</ele>
        <time>2025-02-23T11:21:13.000Z</time>
      </trkpt>
      <trkpt lat="48.55897" lon="-3.00852">
        <ele>115</ele>
        <time>2025-02-23T11:21:29.000Z</time>
      </trkpt>
      <trkpt lat="48.55901" lon="-3.00932">
        <ele>117.2</ele>
        <time>2025-02-23T11:21:43.000Z</time>
      </trkpt>
      <trkpt lat="48.55927" lon="-3.01019">
        <ele>118.2</ele>
        <time>2025-02-23T11:21:59.000Z</time>
      </trkpt>
      <trkpt lat="48.55946" lon="-3.01095">
        <ele>119.6</ele>
        <time>2025-02-23T11:22:13.000Z</time>
      </trkpt>
      <trkpt lat="48.55939" lon="-3.01167">
        <ele>121</ele>
        <time>2025-02-23T11:22:27.000Z</time>
      </trkpt>
      <trkpt lat="48.55929" lon="-3.01239">
        <ele>122.8</ele>
        <time>2025-02-23T11:22:44.000Z</time>
      </trkpt>
      <trkpt lat="48.55921" lon="-3.01306">
        <ele>124.8</ele>
        <time>2025-02-23T11:23:00.000Z</time>
      </trkpt>
      <trkpt lat="48.55908" lon="-3.0137">
        <ele>126.6</ele>
        <time>2025-02-23T11:23:16.000Z</time>
      </trkpt>
      <trkpt lat="48.55889" lon="-3.01426">
        <ele>128</ele>
        <time>2025-02-23T11:23:32.000Z</time>
      </trkpt>
      <trkpt lat="48.55872" lon="-3.01476">
        <ele>130</ele>
        <time>2025-02-23T11:23:48.000Z</time>
      </trkpt>
      <trkpt lat="48.55863" lon="-3.01522">
        <ele>132</ele>
        <time>2025-02-23T11:24:04.000Z</time>
      </trkpt>
      <trkpt lat="48.55857" lon="-3.01573">
        <ele>133.8</ele>
        <time>2025-02-23T11:24:20.000Z</time>
      </trkpt>
      <trkpt lat="48.55854" lon="-3.01624">
        <ele>135.4</ele>
        <time>2025-02-23T11:24:36.000Z</time>
      </trkpt>
      <trkpt lat="48.55851" lon="-3.01686">
        <ele>136.4</ele>
        <time>2025-02-23T11:24:52.000Z</time>
      </trkpt>
      <trkpt lat="48.55856" lon="-3.01751">
        <ele>137.4</ele>
        <time>2025-02-23T11:25:09.000Z</time>
      </trkpt>
      <trkpt lat="48.55864" lon="-3.01822">
        <ele>138.2</ele>
        <time>2025-02-23T11:25:25.000Z</time>
      </trkpt>
      <trkpt lat="48.55871" lon="-3.01906">
        <ele>139.6</ele>
        <time>2025-02-23T11:25:41.000Z</time>
      </trkpt>
      <trkpt lat="48.55875" lon="-3.02008">
        <ele>139.8</ele>
        <time>2025-02-23T11:25:57.000Z</time>
      </trkpt>
      <trkpt lat="48.55877" lon="-3.0212">
        <ele>138.4</ele>
        <time>2025-02-23T11:26:12.000Z</time>
      </trkpt>
      <trkpt lat="48.55867" lon="-3.02245">
        <ele>138</ele>
        <time>2025-02-23T11:26:28.000Z</time>
      </trkpt>
      <trkpt lat="48.55858" lon="-3.02372">
        <ele>136.2</ele>
        <time>2025-02-23T11:26:44.000Z</time>
      </trkpt>
      <trkpt lat="48.55853" lon="-3.02508">
        <ele>132.8</ele>
        <time>2025-02-23T11:26:58.000Z</time>
      </trkpt>
      <trkpt lat="48.55863" lon="-3.02652">
        <ele>131</ele>
        <time>2025-02-23T11:27:13.000Z</time>
      </trkpt>
      <trkpt lat="48.55868" lon="-3.02735">
        <ele>134.2</ele>
        <time>2025-02-23T11:27:30.000Z</time>
      </trkpt>
      <trkpt lat="48.55866" lon="-3.02806">
        <ele>135.8</ele>
        <time>2025-02-23T11:27:46.000Z</time>
      </trkpt>
      <trkpt lat="48.5586" lon="-3.02846">
        <ele>136.4</ele>
        <time>2025-02-23T11:27:56.000Z</time>
      </trkpt>
      <trkpt lat="48.55846" lon="-3.02919">
        <ele>138.4</ele>
        <time>2025-02-23T11:28:12.000Z</time>
      </trkpt>
      <trkpt lat="48.55837" lon="-3.02984">
        <ele>140.6</ele>
        <time>2025-02-23T11:28:28.000Z</time>
      </trkpt>
      <trkpt lat="48.55834" lon="-3.03046">
        <ele>141.8</ele>
        <time>2025-02-23T11:28:44.000Z</time>
      </trkpt>
      <trkpt lat="48.55838" lon="-3.03111">
        <ele>144</ele>
        <time>2025-02-23T11:29:00.000Z</time>
      </trkpt>
      <trkpt lat="48.55851" lon="-3.03182">
        <ele>145.4</ele>
        <time>2025-02-23T11:29:16.000Z</time>
      </trkpt>
      <trkpt lat="48.55867" lon="-3.03254">
        <ele>146</ele>
        <time>2025-02-23T11:29:31.000Z</time>
      </trkpt>
      <trkpt lat="48.55867" lon="-3.0332">
        <ele>146.2</ele>
        <time>2025-02-23T11:29:42.000Z</time>
      </trkpt>
      <trkpt lat="48.55837" lon="-3.03428">
        <ele>144.8</ele>
        <time>2025-02-23T11:29:58.000Z</time>
      </trkpt>
      <trkpt lat="48.55803" lon="-3.03528">
        <ele>144.8</ele>
        <time>2025-02-23T11:30:14.000Z</time>
      </trkpt>
      <trkpt lat="48.55768" lon="-3.0363">
        <ele>144.6</ele>
        <time>2025-02-23T11:30:30.000Z</time>
      </trkpt>
      <trkpt lat="48.55741" lon="-3.03717">
        <ele>145</ele>
        <time>2025-02-23T11:30:44.000Z</time>
      </trkpt>
      <trkpt lat="48.55747" lon="-3.03782">
        <ele>145.8</ele>
        <time>2025-02-23T11:30:53.000Z</time>
      </trkpt>
      <trkpt lat="48.55768" lon="-3.03875">
        <ele>145.8</ele>
        <time>2025-02-23T11:31:09.000Z</time>
      </trkpt>
      <trkpt lat="48.55783" lon="-3.03968">
        <ele>147.8</ele>
        <time>2025-02-23T11:31:25.000Z</time>
      </trkpt>
      <trkpt lat="48.55801" lon="-3.04045">
        <ele>149.6</ele>
        <time>2025-02-23T11:31:41.000Z</time>
      </trkpt>
      <trkpt lat="48.55818" lon="-3.04109">
        <ele>150.4</ele>
        <time>2025-02-23T11:31:57.000Z</time>
      </trkpt>
      <trkpt lat="48.55818" lon="-3.04167">
        <ele>150.4</ele>
        <time>2025-02-23T11:32:14.000Z</time>
      </trkpt>
      <trkpt lat="48.55805" lon="-3.04257">
        <ele>149.6</ele>
        <time>2025-02-23T11:32:30.000Z</time>
      </trkpt>
      <trkpt lat="48.5579" lon="-3.04362">
        <ele>149</ele>
        <time>2025-02-23T11:32:46.000Z</time>
      </trkpt>
      <trkpt lat="48.5578" lon="-3.04462">
        <ele>149.4</ele>
        <time>2025-02-23T11:33:02.000Z</time>
      </trkpt>
      <trkpt lat="48.55775" lon="-3.04539">
        <ele>149.6</ele>
        <time>2025-02-23T11:33:18.000Z</time>
      </trkpt>
      <trkpt lat="48.55762" lon="-3.04625">
        <ele>148.8</ele>
        <time>2025-02-23T11:33:32.000Z</time>
      </trkpt>
      <trkpt lat="48.55752" lon="-3.04719">
        <ele>149.4</ele>
        <time>2025-02-23T11:33:46.000Z</time>
      </trkpt>
      <trkpt lat="48.55732" lon="-3.04773">
        <ele>149.4</ele>
        <time>2025-02-23T11:33:55.000Z</time>
      </trkpt>
      <trkpt lat="48.55712" lon="-3.04859">
        <ele>148.8</ele>
        <time>2025-02-23T11:34:09.000Z</time>
      </trkpt>
      <trkpt lat="48.55695" lon="-3.04948">
        <ele>147.4</ele>
        <time>2025-02-23T11:34:23.000Z</time>
      </trkpt>
      <trkpt lat="48.55678" lon="-3.05049">
        <ele>146.6</ele>
        <time>2025-02-23T11:34:40.000Z</time>
      </trkpt>
      <trkpt lat="48.55653" lon="-3.05196">
        <ele>147.2</ele>
        <time>2025-02-23T11:34:55.000Z</time>
      </trkpt>
      <trkpt lat="48.55636" lon="-3.05286">
        <ele>148</ele>
        <time>2025-02-23T11:35:10.000Z</time>
      </trkpt>
      <trkpt lat="48.55619" lon="-3.05382">
        <ele>148.2</ele>
        <time>2025-02-23T11:35:26.000Z</time>
      </trkpt>
      <trkpt lat="48.55601" lon="-3.05484">
        <ele>148.4</ele>
        <time>2025-02-23T11:35:42.000Z</time>
      </trkpt>
      <trkpt lat="48.55586" lon="-3.05578">
        <ele>148</ele>
        <time>2025-02-23T11:35:57.000Z</time>
      </trkpt>
      <trkpt lat="48.55566" lon="-3.05684">
        <ele>147.4</ele>
        <time>2025-02-23T11:36:13.000Z</time>
      </trkpt>
      <trkpt lat="48.55545" lon="-3.05803">
        <ele>145.6</ele>
        <time>2025-02-23T11:36:29.000Z</time>
      </trkpt>
      <trkpt lat="48.55524" lon="-3.0594">
        <ele>144</ele>
        <time>2025-02-23T11:36:45.000Z</time>
      </trkpt>
      <trkpt lat="48.55504" lon="-3.06075">
        <ele>144.4</ele>
        <time>2025-02-23T11:37:02.000Z</time>
      </trkpt>
      <trkpt lat="48.55498" lon="-3.06123">
        <ele>146</ele>
        <time>2025-02-23T11:37:11.000Z</time>
      </trkpt>
      <trkpt lat="48.55514" lon="-3.06176">
        <ele>146.6</ele>
        <time>2025-02-23T11:37:22.000Z</time>
      </trkpt>
      <trkpt lat="48.55512" lon="-3.06248">
        <ele>147.2</ele>
        <time>2025-02-23T11:37:35.000Z</time>
      </trkpt>
      <trkpt lat="48.55499" lon="-3.06335">
        <ele>148.6</ele>
        <time>2025-02-23T11:37:51.000Z</time>
      </trkpt>
      <trkpt lat="48.55487" lon="-3.06416">
        <ele>149.8</ele>
        <time>2025-02-23T11:38:07.000Z</time>
      </trkpt>
      <trkpt lat="48.55475" lon="-3.0649">
        <ele>148.8</ele>
        <time>2025-02-23T11:38:23.000Z</time>
      </trkpt>
      <trkpt lat="48.55462" lon="-3.06573">
        <ele>149.4</ele>
        <time>2025-02-23T11:38:39.000Z</time>
      </trkpt>
      <trkpt lat="48.55449" lon="-3.06658">
        <ele>148.8</ele>
        <time>2025-02-23T11:38:55.000Z</time>
      </trkpt>
      <trkpt lat="48.55433" lon="-3.06755">
        <ele>149</ele>
        <time>2025-02-23T11:39:11.000Z</time>
      </trkpt>
      <trkpt lat="48.55418" lon="-3.06844">
        <ele>149</ele>
        <time>2025-02-23T11:39:28.000Z</time>
      </trkpt>
      <trkpt lat="48.554" lon="-3.06959">
        <ele>148.4</ele>
        <time>2025-02-23T11:39:44.000Z</time>
      </trkpt>
      <trkpt lat="48.55381" lon="-3.07071">
        <ele>145.6</ele>
        <time>2025-02-23T11:40:00.000Z</time>
      </trkpt>
      <trkpt lat="48.55372" lon="-3.07185">
        <ele>146</ele>
        <time>2025-02-23T11:40:16.000Z</time>
      </trkpt>
      <trkpt lat="48.55379" lon="-3.07298">
        <ele>145.4</ele>
        <time>2025-02-23T11:40:32.000Z</time>
      </trkpt>
      <trkpt lat="48.55381" lon="-3.07411">
        <ele>145</ele>
        <time>2025-02-23T11:40:48.000Z</time>
      </trkpt>
      <trkpt lat="48.55379" lon="-3.07516">
        <ele>144.2</ele>
        <time>2025-02-23T11:41:04.000Z</time>
      </trkpt>
      <trkpt lat="48.55395" lon="-3.07606">
        <ele>144.2</ele>
        <time>2025-02-23T11:41:17.000Z</time>
      </trkpt>
      <trkpt lat="48.55421" lon="-3.07713">
        <ele>143.6</ele>
        <time>2025-02-23T11:41:33.000Z</time>
      </trkpt>
      <trkpt lat="48.55438" lon="-3.07807">
        <ele>142.6</ele>
        <time>2025-02-23T11:41:50.000Z</time>
      </trkpt>
      <trkpt lat="48.55468" lon="-3.07883">
        <ele>141.6</ele>
        <time>2025-02-23T11:42:02.000Z</time>
      </trkpt>
      <trkpt lat="48.5551" lon="-3.0798">
        <ele>140.2</ele>
        <time>2025-02-23T11:42:16.000Z</time>
      </trkpt>
      <trkpt lat="48.55534" lon="-3.08109">
        <ele>141.2</ele>
        <time>2025-02-23T11:42:32.000Z</time>
      </trkpt>
      <trkpt lat="48.55553" lon="-3.082">
        <ele>142.4</ele>
        <time>2025-02-23T11:42:48.000Z</time>
      </trkpt>
      <trkpt lat="48.55563" lon="-3.08284">
        <ele>142.4</ele>
        <time>2025-02-23T11:43:04.000Z</time>
      </trkpt>
      <trkpt lat="48.55579" lon="-3.08376">
        <ele>141.8</ele>
        <time>2025-02-23T11:43:20.000Z</time>
      </trkpt>
      <trkpt lat="48.55611" lon="-3.08477">
        <ele>140</ele>
        <time>2025-02-23T11:43:36.000Z</time>
      </trkpt>
      <trkpt lat="48.55652" lon="-3.08609">
        <ele>137.4</ele>
        <time>2025-02-23T11:43:52.000Z</time>
      </trkpt>
      <trkpt lat="48.55681" lon="-3.08735">
        <ele>136.4</ele>
        <time>2025-02-23T11:44:09.000Z</time>
      </trkpt>
      <trkpt lat="48.5571" lon="-3.08847">
        <ele>136.4</ele>
        <time>2025-02-23T11:44:25.000Z</time>
      </trkpt>
      <trkpt lat="48.55737" lon="-3.08961">
        <ele>136.2</ele>
        <time>2025-02-23T11:44:41.000Z</time>
      </trkpt>
      <trkpt lat="48.55751" lon="-3.09076">
        <ele>136.6</ele>
        <time>2025-02-23T11:44:57.000Z</time>
      </trkpt>
      <trkpt lat="48.55755" lon="-3.09176">
        <ele>137.8</ele>
        <time>2025-02-23T11:45:13.000Z</time>
      </trkpt>
      <trkpt lat="48.55763" lon="-3.09269">
        <ele>137.6</ele>
        <time>2025-02-23T11:45:29.000Z</time>
      </trkpt>
      <trkpt lat="48.55775" lon="-3.09366">
        <ele>136.8</ele>
        <time>2025-02-23T11:45:45.000Z</time>
      </trkpt>
      <trkpt lat="48.55785" lon="-3.09527">
        <ele>132.4</ele>
        <time>2025-02-23T11:46:01.000Z</time>
      </trkpt>
      <trkpt lat="48.55799" lon="-3.09665">
        <ele>127.2</ele>
        <time>2025-02-23T11:46:13.000Z</time>
      </trkpt>
      <trkpt lat="48.55813" lon="-3.09738">
        <ele>124</ele>
        <time>2025-02-23T11:46:20.000Z</time>
      </trkpt>
      <trkpt lat="48.55804" lon="-3.0978">
        <ele>123.2</ele>
        <time>2025-02-23T11:46:25.000Z</time>
      </trkpt>
      <trkpt lat="48.5578" lon="-3.09848">
        <ele>123</ele>
        <time>2025-02-23T11:46:32.000Z</time>
      </trkpt>
      <trkpt lat="48.55785" lon="-3.09891">
        <ele>123.8</ele>
        <time>2025-02-23T11:46:36.000Z</time>
      </trkpt>
      <trkpt lat="48.55825" lon="-3.09969">
        <ele>125.2</ele>
        <time>2025-02-23T11:46:49.000Z</time>
      </trkpt>
      <trkpt lat="48.55846" lon="-3.10028">
        <ele>128</ele>
        <time>2025-02-23T11:47:05.000Z</time>
      </trkpt>
      <trkpt lat="48.55861" lon="-3.10098">
        <ele>128.8</ele>
        <time>2025-02-23T11:47:21.000Z</time>
      </trkpt>
      <trkpt lat="48.5587" lon="-3.10168">
        <ele>130</ele>
        <time>2025-02-23T11:47:37.000Z</time>
      </trkpt>
      <trkpt lat="48.55877" lon="-3.10238">
        <ele>131</ele>
        <time>2025-02-23T11:47:53.000Z</time>
      </trkpt>
      <trkpt lat="48.55884" lon="-3.10308">
        <ele>132.4</ele>
        <time>2025-02-23T11:48:09.000Z</time>
      </trkpt>
      <trkpt lat="48.5591" lon="-3.10375">
        <ele>133</ele>
        <time>2025-02-23T11:48:25.000Z</time>
      </trkpt>
      <trkpt lat="48.55916" lon="-3.10426">
        <ele>133</ele>
        <time>2025-02-23T11:48:35.000Z</time>
      </trkpt>
      <trkpt lat="48.55917" lon="-3.10469">
        <ele>131.8</ele>
        <time>2025-02-23T11:48:43.000Z</time>
      </trkpt>
      <trkpt lat="48.55938" lon="-3.10497">
        <ele>131</ele>
        <time>2025-02-23T11:48:51.000Z</time>
      </trkpt>
      <trkpt lat="48.55927" lon="-3.10539">
        <ele>130.6</ele>
        <time>2025-02-23T11:48:59.000Z</time>
      </trkpt>
      <trkpt lat="48.55927" lon="-3.10583">
        <ele>130.6</ele>
        <time>2025-02-23T11:49:07.000Z</time>
      </trkpt>
      <trkpt lat="48.55943" lon="-3.10658">
        <ele>132.8</ele>
        <time>2025-02-23T11:49:23.000Z</time>
      </trkpt>
      <trkpt lat="48.55953" lon="-3.10715">
        <ele>134.6</ele>
        <time>2025-02-23T11:49:38.000Z</time>
      </trkpt>
      <trkpt lat="48.55971" lon="-3.10744">
        <ele>135.6</ele>
        <time>2025-02-23T11:49:51.000Z</time>
      </trkpt>
      <trkpt lat="48.55991" lon="-3.10775">
        <ele>136.6</ele>
        <time>2025-02-23T11:50:04.000Z</time>
      </trkpt>
      <trkpt lat="48.56011" lon="-3.10839">
        <ele>136.4</ele>
        <time>2025-02-23T11:50:20.000Z</time>
      </trkpt>
      <trkpt lat="48.56024" lon="-3.10905">
        <ele>136.6</ele>
        <time>2025-02-23T11:50:34.000Z</time>
      </trkpt>
      <trkpt lat="48.5604" lon="-3.10966">
        <ele>137.8</ele>
        <time>2025-02-23T11:50:47.000Z</time>
      </trkpt>
      <trkpt lat="48.56054" lon="-3.11036">
        <ele>139.6</ele>
        <time>2025-02-23T11:51:03.000Z</time>
      </trkpt>
      <trkpt lat="48.56061" lon="-3.1111">
        <ele>139.8</ele>
        <time>2025-02-23T11:51:20.000Z</time>
      </trkpt>
      <trkpt lat="48.56072" lon="-3.11192">
        <ele>139.4</ele>
        <time>2025-02-23T11:51:36.000Z</time>
      </trkpt>
      <trkpt lat="48.56082" lon="-3.11277">
        <ele>139.8</ele>
        <time>2025-02-23T11:51:52.000Z</time>
      </trkpt>
      <trkpt lat="48.56096" lon="-3.1134">
        <ele>140.6</ele>
        <time>2025-02-23T11:52:03.000Z</time>
      </trkpt>
      <trkpt lat="48.56095" lon="-3.11423">
        <ele>141.2</ele>
        <time>2025-02-23T11:52:19.000Z</time>
      </trkpt>
      <trkpt lat="48.56099" lon="-3.11498">
        <ele>142.4</ele>
        <time>2025-02-23T11:52:35.000Z</time>
      </trkpt>
      <trkpt lat="48.56109" lon="-3.11581">
        <ele>143.2</ele>
        <time>2025-02-23T11:52:51.000Z</time>
      </trkpt>
      <trkpt lat="48.56113" lon="-3.11662">
        <ele>142.8</ele>
        <time>2025-02-23T11:53:07.000Z</time>
      </trkpt>
      <trkpt lat="48.56106" lon="-3.11745">
        <ele>142.6</ele>
        <time>2025-02-23T11:53:23.000Z</time>
      </trkpt>
      <trkpt lat="48.56108" lon="-3.11827">
        <ele>142.8</ele>
        <time>2025-02-23T11:53:39.000Z</time>
      </trkpt>
      <trkpt lat="48.56136" lon="-3.1196">
        <ele>138.8</ele>
        <time>2025-02-23T11:53:55.000Z</time>
      </trkpt>
      <trkpt lat="48.56172" lon="-3.12083">
        <ele>136.2</ele>
        <time>2025-02-23T11:54:11.000Z</time>
      </trkpt>
      <trkpt lat="48.56202" lon="-3.12159">
        <ele>135</ele>
        <time>2025-02-23T11:54:24.000Z</time>
      </trkpt>
      <trkpt lat="48.56206" lon="-3.12177">
        <ele>134.2</ele>
        <time>2025-02-23T11:54:34.000Z</time>
      </trkpt>
      <trkpt lat="48.56166" lon="-3.12289">
        <ele>131.6</ele>
        <time>2025-02-23T11:54:50.000Z</time>
      </trkpt>
      <trkpt lat="48.5612" lon="-3.12416">
        <ele>125</ele>
        <time>2025-02-23T11:55:02.000Z</time>
      </trkpt>
      <trkpt lat="48.56106" lon="-3.12547">
        <ele>120.8</ele>
        <time>2025-02-23T11:55:14.000Z</time>
      </trkpt>
      <trkpt lat="48.56105" lon="-3.12642">
        <ele>119.2</ele>
        <time>2025-02-23T11:55:26.000Z</time>
      </trkpt>
      <trkpt lat="48.56119" lon="-3.12688">
        <ele>118.6</ele>
        <time>2025-02-23T11:55:32.000Z</time>
      </trkpt>
      <trkpt lat="48.56107" lon="-3.1272">
        <ele>117.8</ele>
        <time>2025-02-23T11:55:36.000Z</time>
      </trkpt>
      <trkpt lat="48.56087" lon="-3.12758">
        <ele>118.2</ele>
        <time>2025-02-23T11:55:42.000Z</time>
      </trkpt>
      <trkpt lat="48.56082" lon="-3.129">
        <ele>117.8</ele>
        <time>2025-02-23T11:55:59.000Z</time>
      </trkpt>
      <trkpt lat="48.56083" lon="-3.12989">
        <ele>118.6</ele>
        <time>2025-02-23T11:56:10.000Z</time>
      </trkpt>
      <trkpt lat="48.5607" lon="-3.1305">
        <ele>119</ele>
        <time>2025-02-23T11:56:19.000Z</time>
      </trkpt>
      <trkpt lat="48.56054" lon="-3.13154">
        <ele>119.2</ele>
        <time>2025-02-23T11:56:35.000Z</time>
      </trkpt>
      <trkpt lat="48.56027" lon="-3.1327">
        <ele>117.4</ele>
        <time>2025-02-23T11:56:51.000Z</time>
      </trkpt>
      <trkpt lat="48.56004" lon="-3.13393">
        <ele>113.6</ele>
        <time>2025-02-23T11:57:07.000Z</time>
      </trkpt>
      <trkpt lat="48.55984" lon="-3.13543">
        <ele>110.2</ele>
        <time>2025-02-23T11:57:23.000Z</time>
      </trkpt>
      <trkpt lat="48.55965" lon="-3.13673">
        <ele>108</ele>
        <time>2025-02-23T11:57:39.000Z</time>
      </trkpt>
      <trkpt lat="48.55946" lon="-3.13802">
        <ele>106.8</ele>
        <time>2025-02-23T11:57:55.000Z</time>
      </trkpt>
      <trkpt lat="48.55943" lon="-3.13863">
        <ele>107.4</ele>
        <time>2025-02-23T11:58:08.000Z</time>
      </trkpt>
      <trkpt lat="48.55943" lon="-3.13861">
        <ele>107.2</ele>
        <time>2025-02-23T11:58:19.000Z</time>
      </trkpt>
      <trkpt lat="48.55946" lon="-3.13916">
        <ele>107.6</ele>
        <time>2025-02-23T11:58:48.000Z</time>
      </trkpt>
      <trkpt lat="48.55952" lon="-3.14017">
        <ele>107.4</ele>
        <time>2025-02-23T11:59:04.000Z</time>
      </trkpt>
      <trkpt lat="48.55968" lon="-3.14104">
        <ele>109.4</ele>
        <time>2025-02-23T11:59:18.000Z</time>
      </trkpt>
      <trkpt lat="48.55988" lon="-3.14204">
        <ele>107.2</ele>
        <time>2025-02-23T11:59:34.000Z</time>
      </trkpt>
      <trkpt lat="48.56007" lon="-3.14306">
        <ele>106.4</ele>
        <time>2025-02-23T11:59:50.000Z</time>
      </trkpt>
      <trkpt lat="48.56018" lon="-3.14383">
        <ele>106.8</ele>
        <time>2025-02-23T12:00:06.000Z</time>
      </trkpt>
      <trkpt lat="48.56026" lon="-3.14448">
        <ele>105.8</ele>
        <time>2025-02-23T12:00:22.000Z</time>
      </trkpt>
      <trkpt lat="48.56036" lon="-3.14538">
        <ele>103.8</ele>
        <time>2025-02-23T12:00:38.000Z</time>
      </trkpt>
      <trkpt lat="48.56048" lon="-3.14636">
        <ele>102.6</ele>
        <time>2025-02-23T12:00:55.000Z</time>
      </trkpt>
      <trkpt lat="48.56061" lon="-3.14736">
        <ele>101.6</ele>
        <time>2025-02-23T12:01:11.000Z</time>
      </trkpt>
      <trkpt lat="48.56071" lon="-3.14788">
        <ele>100.2</ele>
        <time>2025-02-23T12:01:25.000Z</time>
      </trkpt>
      <trkpt lat="48.56099" lon="-3.14841">
        <ele>99.8</ele>
        <time>2025-02-23T12:01:39.000Z</time>
      </trkpt>
      <trkpt lat="48.56146" lon="-3.14878">
        <ele>99</ele>
        <time>2025-02-23T12:01:50.000Z</time>
      </trkpt>
      <trkpt lat="48.5623" lon="-3.1491">
        <ele>96.6</ele>
        <time>2025-02-23T12:02:04.000Z</time>
      </trkpt>
      <trkpt lat="48.56318" lon="-3.14982">
        <ele>94</ele>
        <time>2025-02-23T12:02:18.000Z</time>
      </trkpt>
      <trkpt lat="48.56356" lon="-3.15026">
        <ele>92.8</ele>
        <time>2025-02-23T12:02:26.000Z</time>
      </trkpt>
      <trkpt lat="48.56374" lon="-3.15094">
        <ele>91.4</ele>
        <time>2025-02-23T12:02:35.000Z</time>
      </trkpt>
      <trkpt lat="48.56387" lon="-3.15237">
        <ele>89.2</ele>
        <time>2025-02-23T12:02:50.000Z</time>
      </trkpt>
      <trkpt lat="48.56406" lon="-3.15378">
        <ele>87</ele>
        <time>2025-02-23T12:03:07.000Z</time>
      </trkpt>
      <trkpt lat="48.56418" lon="-3.15425">
        <ele>87</ele>
        <time>2025-02-23T12:03:13.000Z</time>
      </trkpt>
      <trkpt lat="48.56469" lon="-3.15472">
        <ele>87</ele>
        <time>2025-02-23T12:03:22.000Z</time>
      </trkpt>
      <trkpt lat="48.56506" lon="-3.15537">
        <ele>88.6</ele>
        <time>2025-02-23T12:03:34.000Z</time>
      </trkpt>
      <trkpt lat="48.56549" lon="-3.15622">
        <ele>90.4</ele>
        <time>2025-02-23T12:03:50.000Z</time>
      </trkpt>
      <trkpt lat="48.56603" lon="-3.15714">
        <ele>87.8</ele>
        <time>2025-02-23T12:04:06.000Z</time>
      </trkpt>
      <trkpt lat="48.56665" lon="-3.15791">
        <ele>85.8</ele>
        <time>2025-02-23T12:04:18.000Z</time>
      </trkpt>
      <trkpt lat="48.56748" lon="-3.15837">
        <ele>85.2</ele>
        <time>2025-02-23T12:04:31.000Z</time>
      </trkpt>
      <trkpt lat="48.56838" lon="-3.15858">
        <ele>82.8</ele>
        <time>2025-02-23T12:04:44.000Z</time>
      </trkpt>
      <trkpt lat="48.56899" lon="-3.15892">
        <ele>81.8</ele>
        <time>2025-02-23T12:04:56.000Z</time>
      </trkpt>
      <trkpt lat="48.56971" lon="-3.15932">
        <ele>81.2</ele>
        <time>2025-02-23T12:05:09.000Z</time>
      </trkpt>
      <trkpt lat="48.57067" lon="-3.1599">
        <ele>80</ele>
        <time>2025-02-23T12:05:25.000Z</time>
      </trkpt>
      <trkpt lat="48.57131" lon="-3.16038">
        <ele>80.6</ele>
        <time>2025-02-23T12:05:39.000Z</time>
      </trkpt>
      <trkpt lat="48.57163" lon="-3.16106">
        <ele>81.4</ele>
        <time>2025-02-23T12:05:48.000Z</time>
      </trkpt>
      <trkpt lat="48.57184" lon="-3.16213">
        <ele>82.4</ele>
        <time>2025-02-23T12:06:02.000Z</time>
      </trkpt>
      <trkpt lat="48.57218" lon="-3.16281">
        <ele>84.8</ele>
        <time>2025-02-23T12:06:15.000Z</time>
      </trkpt>
      <trkpt lat="48.57274" lon="-3.16328">
        <ele>89.8</ele>
        <time>2025-02-23T12:06:30.000Z</time>
      </trkpt>
      <trkpt lat="48.57323" lon="-3.16369">
        <ele>93.2</ele>
        <time>2025-02-23T12:06:46.000Z</time>
      </trkpt>
      <trkpt lat="48.57363" lon="-3.16401">
        <ele>96</ele>
        <time>2025-02-23T12:07:01.000Z</time>
      </trkpt>
      <trkpt lat="48.57401" lon="-3.16427">
        <ele>99.2</ele>
        <time>2025-02-23T12:07:16.000Z</time>
      </trkpt>
      <trkpt lat="48.5744" lon="-3.1645">
        <ele>101.6</ele>
        <time>2025-02-23T12:07:32.000Z</time>
      </trkpt>
      <trkpt lat="48.57471" lon="-3.16485">
        <ele>103.8</ele>
        <time>2025-02-23T12:07:47.000Z</time>
      </trkpt>
      <trkpt lat="48.57483" lon="-3.16542">
        <ele>106.4</ele>
        <time>2025-02-23T12:08:04.000Z</time>
      </trkpt>
      <trkpt lat="48.57467" lon="-3.16603">
        <ele>108.6</ele>
        <time>2025-02-23T12:08:20.000Z</time>
      </trkpt>
      <trkpt lat="48.5745" lon="-3.16664">
        <ele>111.2</ele>
        <time>2025-02-23T12:08:36.000Z</time>
      </trkpt>
      <trkpt lat="48.5744" lon="-3.16728">
        <ele>114.2</ele>
        <time>2025-02-23T12:08:52.000Z</time>
      </trkpt>
      <trkpt lat="48.57439" lon="-3.16787">
        <ele>116.8</ele>
        <time>2025-02-23T12:09:08.000Z</time>
      </trkpt>
      <trkpt lat="48.57442" lon="-3.16837">
        <ele>117.6</ele>
        <time>2025-02-23T12:09:22.000Z</time>
      </trkpt>
      <trkpt lat="48.57413" lon="-3.16854">
        <ele>119.2</ele>
        <time>2025-02-23T12:09:33.000Z</time>
      </trkpt>
      <trkpt lat="48.57387" lon="-3.16888">
        <ele>121.2</ele>
        <time>2025-02-23T12:09:48.000Z</time>
      </trkpt>
      <trkpt lat="48.57373" lon="-3.16932">
        <ele>123.2</ele>
        <time>2025-02-23T12:10:04.000Z</time>
      </trkpt>
      <trkpt lat="48.57369" lon="-3.16945">
        <ele>124.4</ele>
        <time>2025-02-23T12:10:09.000Z</time>
      </trkpt>
      <trkpt lat="48.57355" lon="-3.16984">
        <ele>125.6</ele>
        <time>2025-02-23T12:10:26.000Z</time>
      </trkpt>
      <trkpt lat="48.5735" lon="-3.17008">
        <ele>127.4</ele>
        <time>2025-02-23T12:10:35.000Z</time>
      </trkpt>
      <trkpt lat="48.57347" lon="-3.17018">
        <ele>128.4</ele>
        <time>2025-02-23T12:10:39.000Z</time>
      </trkpt>
      <trkpt lat="48.57344" lon="-3.17044">
        <ele>129.4</ele>
        <time>2025-02-23T12:10:48.000Z</time>
      </trkpt>
      <trkpt lat="48.57344" lon="-3.17095">
        <ele>131.8</ele>
        <time>2025-02-23T12:11:04.000Z</time>
      </trkpt>
      <trkpt lat="48.57358" lon="-3.17155">
        <ele>132.8</ele>
        <time>2025-02-23T12:11:20.000Z</time>
      </trkpt>
      <trkpt lat="48.57375" lon="-3.17217">
        <ele>134.6</ele>
        <time>2025-02-23T12:11:36.000Z</time>
      </trkpt>
      <trkpt lat="48.57394" lon="-3.17271">
        <ele>137</ele>
        <time>2025-02-23T12:11:52.000Z</time>
      </trkpt>
      <trkpt lat="48.5742" lon="-3.17339">
        <ele>137.6</ele>
        <time>2025-02-23T12:12:08.000Z</time>
      </trkpt>
      <trkpt lat="48.57454" lon="-3.17439">
        <ele>135.6</ele>
        <time>2025-02-23T12:12:24.000Z</time>
      </trkpt>
      <trkpt lat="48.57502" lon="-3.17565">
        <ele>135.4</ele>
        <time>2025-02-23T12:12:41.000Z</time>
      </trkpt>
      <trkpt lat="48.57546" lon="-3.17672">
        <ele>138</ele>
        <time>2025-02-23T12:12:57.000Z</time>
      </trkpt>
      <trkpt lat="48.57572" lon="-3.17745">
        <ele>140.2</ele>
        <time>2025-02-23T12:13:13.000Z</time>
      </trkpt>
      <trkpt lat="48.576" lon="-3.17829">
        <ele>138.8</ele>
        <time>2025-02-23T12:13:29.000Z</time>
      </trkpt>
      <trkpt lat="48.57639" lon="-3.17935">
        <ele>140.2</ele>
        <time>2025-02-23T12:13:45.000Z</time>
      </trkpt>
      <trkpt lat="48.57674" lon="-3.17997">
        <ele>142.4</ele>
        <time>2025-02-23T12:13:59.000Z</time>
      </trkpt>
      <trkpt lat="48.57715" lon="-3.18033">
        <ele>144.4</ele>
        <time>2025-02-23T12:14:15.000Z</time>
      </trkpt>
      <trkpt lat="48.57748" lon="-3.18081">
        <ele>146</ele>
        <time>2025-02-23T12:14:31.000Z</time>
      </trkpt>
      <trkpt lat="48.57775" lon="-3.18145">
        <ele>146.4</ele>
        <time>2025-02-23T12:14:47.000Z</time>
      </trkpt>
      <trkpt lat="48.57805" lon="-3.18221">
        <ele>147.6</ele>
        <time>2025-02-23T12:15:04.000Z</time>
      </trkpt>
      <trkpt lat="48.57834" lon="-3.18294">
        <ele>149.8</ele>
        <time>2025-02-23T12:15:20.000Z</time>
      </trkpt>
      <trkpt lat="48.57855" lon="-3.18356">
        <ele>152.8</ele>
        <time>2025-02-23T12:15:36.000Z</time>
      </trkpt>
      <trkpt lat="48.5787" lon="-3.18365">
        <ele>154.4</ele>
        <time>2025-02-23T12:16:23.000Z</time>
      </trkpt>
      <trkpt lat="48.57892" lon="-3.18322">
        <ele>153.8</ele>
        <time>2025-02-23T12:16:39.000Z</time>
      </trkpt>
      <trkpt lat="48.57894" lon="-3.18326">
        <ele>153.8</ele>
        <time>2025-02-23T12:16:44.000Z</time>
      </trkpt>
      <trkpt lat="48.57873" lon="-3.18371">
        <ele>153.4</ele>
        <time>2025-02-23T12:16:58.000Z</time>
      </trkpt>
      <trkpt lat="48.57861" lon="-3.18397">
        <ele>155.8</ele>
        <time>2025-02-23T12:17:06.000Z</time>
      </trkpt>
      <trkpt lat="48.57863" lon="-3.18382">
        <ele>155.6</ele>
        <time>2025-02-23T12:17:11.000Z</time>
      </trkpt>
      <trkpt lat="48.57894" lon="-3.18322">
        <ele>154.4</ele>
        <time>2025-02-23T12:17:28.000Z</time>
      </trkpt>
      <trkpt lat="48.57931" lon="-3.18251">
        <ele>153.6</ele>
        <time>2025-02-23T12:17:44.000Z</time>
      </trkpt>
      <trkpt lat="48.5797" lon="-3.18173">
        <ele>153.6</ele>
        <time>2025-02-23T12:18:00.000Z</time>
      </trkpt>
      <trkpt lat="48.57998" lon="-3.18107">
        <ele>155</ele>
        <time>2025-02-23T12:18:15.000Z</time>
      </trkpt>
      <trkpt lat="48.57994" lon="-3.18125">
        <ele>155.6</ele>
        <time>2025-02-23T12:18:22.000Z</time>
      </trkpt>
      <trkpt lat="48.57955" lon="-3.18209">
        <ele>153.2</ele>
        <time>2025-02-23T12:18:37.000Z</time>
      </trkpt>
      <trkpt lat="48.57908" lon="-3.18302">
        <ele>153</ele>
        <time>2025-02-23T12:18:53.000Z</time>
      </trkpt>
      <trkpt lat="48.5788" lon="-3.18359">
        <ele>153.2</ele>
        <time>2025-02-23T12:19:09.000Z</time>
      </trkpt>
      <trkpt lat="48.57856" lon="-3.18412">
        <ele>154.2</ele>
        <time>2025-02-23T12:19:25.000Z</time>
      </trkpt>
      <trkpt lat="48.57827" lon="-3.18508">
        <ele>152</ele>
        <time>2025-02-23T12:19:41.000Z</time>
      </trkpt>
      <trkpt lat="48.57793" lon="-3.18546">
        <ele>149.8</ele>
        <time>2025-02-23T12:19:51.000Z</time>
      </trkpt>
      <trkpt lat="48.57714" lon="-3.18577">
        <ele>150.2</ele>
        <time>2025-02-23T12:20:05.000Z</time>
      </trkpt>
      <trkpt lat="48.57683" lon="-3.18612">
        <ele>150.6</ele>
        <time>2025-02-23T12:20:17.000Z</time>
      </trkpt>
      <trkpt lat="48.57653" lon="-3.1865">
        <ele>150.6</ele>
        <time>2025-02-23T12:20:28.000Z</time>
      </trkpt>
      <trkpt lat="48.57656" lon="-3.18664">
        <ele>151</ele>
        <time>2025-02-23T12:20:32.000Z</time>
      </trkpt>
      <trkpt lat="48.57695" lon="-3.18668">
        <ele>151.4</ele>
        <time>2025-02-23T12:20:44.000Z</time>
      </trkpt>
      <trkpt lat="48.5771" lon="-3.18686">
        <ele>152.4</ele>
        <time>2025-02-23T12:20:51.000Z</time>
      </trkpt>
      <trkpt lat="48.57705" lon="-3.18743">
        <ele>152.6</ele>
        <time>2025-02-23T12:21:03.000Z</time>
      </trkpt>
      <trkpt lat="48.57703" lon="-3.18801">
        <ele>154</ele>
        <time>2025-02-23T12:21:16.000Z</time>
      </trkpt>
      <trkpt lat="48.57685" lon="-3.18831">
        <ele>153.2</ele>
        <time>2025-02-23T12:21:24.000Z</time>
      </trkpt>
      <trkpt lat="48.57685" lon="-3.18878">
        <ele>154.2</ele>
        <time>2025-02-23T12:21:32.000Z</time>
      </trkpt>
      <trkpt lat="48.57692" lon="-3.1894">
        <ele>156</ele>
        <time>2025-02-23T12:21:45.000Z</time>
      </trkpt>
      <trkpt lat="48.57687" lon="-3.18946">
        <ele>156.4</ele>
        <time>2025-02-23T12:21:50.000Z</time>
      </trkpt>
      <trkpt lat="48.57686" lon="-3.18948">
        <ele>156.4</ele>
        <time>2025-02-23T12:22:37.000Z</time>
      </trkpt>
    </trkseg>
  </trk>
</gpx>